<?xml version="1.0" encoding="UTF-8"?>
<gpx creator="Garmin Connect" version="1.1"
  xsi:schemaLocation="http://www.topografix.com/GPX/1/1 http://www.topografix.com/GPX/11.xsd"
  xmlns:ns3="http://www.garmin.com/xmlschemas/TrackPointExtension/v1"
  xmlns="http://www.topografix.com/GPX/1/1"
  xmlns:xsi="http://www.w3.org/2001/XMLSchema-instance" xmlns:ns2="http://www.garmin.com/xmlschemas/GpxExtensions/v3">
  <metadata>
    <name>LU - Dag 1</name>
    <link href="connect.garmin.com">
      <text>Garmin Connect</text>
    </link>
    <time>2024-12-29T14:47:43.000Z</time>
  </metadata>
  <wpt lat="49.75188165938994" lon="6.1100636636666">
    <ele>0.0</ele>
    <name>Tein Mersch</name>
    <type>GENERIC</type>
  </wpt>
  <wpt lat="49.7613290266268" lon="6.10892705387125">
    <ele>0.0</ele>
    <name>Waterpunt 1</name>
    <type>INFO</type>
  </wpt>
  <wpt lat="49.76777113666088" lon="6.11135514749918">
    <ele>0.0</ele>
    <name>Waterpunt 2</name>
    <type>INFO</type>
  </wpt>
  <wpt lat="49.77862598589295" lon="6.11589500961791">
    <ele>0.0</ele>
    <name>Waterpunt 3</name>
    <type>INFO</type>
  </wpt>
  <wpt lat="49.78581383630275" lon="6.11480052583558">
    <ele>0.0</ele>
    <name>Waterpunt 4</name>
    <type>INFO</type>
  </wpt>
  <wpt lat="49.7885415529474" lon="6.11755577293509">
    <ele>0.0</ele>
    <name>Waterount 5</name>
    <type>INFO</type>
  </wpt>
  <wpt lat="49.79618121717294" lon="6.12015692033107">
    <ele>0.0</ele>
    <name>Trein Cruchten</name>
    <type>GENERIC</type>
  </wpt>
  <wpt lat="49.80107280791027" lon="6.117607336164">
    <ele>0.0</ele>
    <name>Waterpunt 6</name>
    <type>INFO</type>
  </wpt>
  <wpt lat="49.80332796037028" lon="6.11287513565622">
    <ele>0.0</ele>
    <name>Waterpunt 7</name>
    <type>INFO</type>
  </wpt>
  <wpt lat="49.8141246921884" lon="6.09894399384074">
    <ele>0.0</ele>
    <name>Trein Colmar</name>
    <type>GENERIC</type>
  </wpt>
  <wpt lat="49.82981665780594" lon="6.0949488404231">
    <ele>0.0</ele>
    <name>Trein Schieren</name>
    <type>GENERIC</type>
  </wpt>
  <wpt lat="49.83357113311086" lon="6.09568007746461">
    <ele>0.0</ele>
    <name>Voyages Schmit </name>
    <type>GENERIC</type>
  </wpt>
  <trk>
    <name>LU - Dag 1</name>
    <trkseg>
      <trkpt lat="49.74329595454037" lon="6.089526917785406">
        <ele>251.99</ele>
        <time>2024-12-29T14:47:43.000Z</time>
      </trkpt>
      <trkpt lat="49.7433359362185" lon="6.0896169394254684">
        <ele>250.92</ele>
        <time>2024-12-29T14:47:43.009Z</time>
      </trkpt>
      <trkpt lat="49.74354598671198" lon="6.089664967730641">
        <ele>249.67</ele>
        <time>2024-12-29T14:47:43.047Z</time>
      </trkpt>
      <trkpt lat="49.74360792897642" lon="6.089698998257518">
        <ele>248.45</ele>
        <time>2024-12-29T14:47:43.094Z</time>
      </trkpt>
      <trkpt lat="49.74371898919344" lon="6.0897609405219555">
        <ele>247.11</ele>
        <time>2024-12-29T14:47:43.156Z</time>
      </trkpt>
      <trkpt lat="49.74380993284285" lon="6.0901479329913855">
        <ele>245.69</ele>
        <time>2024-12-29T14:47:43.254Z</time>
      </trkpt>
      <trkpt lat="49.74390615709126" lon="6.090526878833771">
        <ele>244.08</ele>
        <time>2024-12-29T14:47:43.387Z</time>
      </trkpt>
      <trkpt lat="49.74400196224451" lon="6.090903980657458">
        <ele>242.2</ele>
        <time>2024-12-29T14:47:43.555Z</time>
      </trkpt>
      <trkpt lat="49.744111178442836" lon="6.091309413313866">
        <ele>240.47</ele>
        <time>2024-12-29T14:47:43.761Z</time>
      </trkpt>
      <trkpt lat="49.744219975546" lon="6.091712918132544">
        <ele>239.05</ele>
        <time>2024-12-29T14:47:44.005Z</time>
      </trkpt>
      <trkpt lat="49.74428694695234" lon="6.091955993324518">
        <ele>238.01</ele>
        <time>2024-12-29T14:47:44.272Z</time>
      </trkpt>
      <trkpt lat="49.74445827305317" lon="6.092317588627338">
        <ele>237.29</ele>
        <time>2024-12-29T14:47:44.578Z</time>
      </trkpt>
      <trkpt lat="49.74462892860174" lon="6.092677926644683">
        <ele>236.62</ele>
        <time>2024-12-29T14:47:44.922Z</time>
      </trkpt>
      <trkpt lat="49.74475868046284" lon="6.092949416488409">
        <ele>236.05</ele>
        <time>2024-12-29T14:47:45.295Z</time>
      </trkpt>
      <trkpt lat="49.74488792940974" lon="6.093219984322786">
        <ele>235.56</ele>
        <time>2024-12-29T14:47:45.697Z</time>
      </trkpt>
      <trkpt lat="49.74492397159338" lon="6.093343952670693">
        <ele>235.28</ele>
        <time>2024-12-29T14:47:46.111Z</time>
      </trkpt>
      <trkpt lat="49.745000917464495" lon="6.093419976532459">
        <ele>235.05</ele>
        <time>2024-12-29T14:47:46.537Z</time>
      </trkpt>
      <trkpt lat="49.74503796547651" lon="6.093460964038968">
        <ele>234.9</ele>
        <time>2024-12-29T14:47:46.969Z</time>
      </trkpt>
      <trkpt lat="49.74507291801274" lon="6.093484936282039">
        <ele>234.81</ele>
        <time>2024-12-29T14:47:47.407Z</time>
      </trkpt>
      <trkpt lat="49.74510191939771" lon="6.093609994277358">
        <ele>234.78</ele>
        <time>2024-12-29T14:47:47.856Z</time>
      </trkpt>
      <trkpt lat="49.74516394548118" lon="6.093794982880354">
        <ele>234.76</ele>
        <time>2024-12-29T14:47:48.323Z</time>
      </trkpt>
      <trkpt lat="49.745328733697534" lon="6.0941526386886835">
        <ele>234.74</ele>
        <time>2024-12-29T14:47:48.828Z</time>
      </trkpt>
      <trkpt lat="49.745492935180664" lon="6.094508953392506">
        <ele>234.68</ele>
        <time>2024-12-29T14:47:49.371Z</time>
      </trkpt>
      <trkpt lat="49.74556694738567" lon="6.0946709755808115">
        <ele>234.72</ele>
        <time>2024-12-29T14:47:49.931Z</time>
      </trkpt>
      <trkpt lat="49.74573793821037" lon="6.095042964443564">
        <ele>234.88</ele>
        <time>2024-12-29T14:47:50.530Z</time>
      </trkpt>
      <trkpt lat="49.74578697234392" lon="6.0951819363981485">
        <ele>235.0</ele>
        <time>2024-12-29T14:47:51.143Z</time>
      </trkpt>
      <trkpt lat="49.74580993875861" lon="6.095321998000145">
        <ele>235.17</ele>
        <time>2024-12-29T14:47:51.769Z</time>
      </trkpt>
      <trkpt lat="49.74580792710185" lon="6.095487959682941">
        <ele>235.36</ele>
        <time>2024-12-29T14:47:52.409Z</time>
      </trkpt>
      <trkpt lat="49.745777919888496" lon="6.0956519935280085">
        <ele>235.56</ele>
        <time>2024-12-29T14:47:53.064Z</time>
      </trkpt>
      <trkpt lat="49.74572092294693" lon="6.0957989282906055">
        <ele>235.7</ele>
        <time>2024-12-29T14:47:53.733Z</time>
      </trkpt>
      <trkpt lat="49.745770962908864" lon="6.095827929675579">
        <ele>235.86</ele>
        <time>2024-12-29T14:47:54.410Z</time>
      </trkpt>
      <trkpt lat="49.7458019759506" lon="6.095900936052203">
        <ele>236.0</ele>
        <time>2024-12-29T14:47:55.094Z</time>
      </trkpt>
      <trkpt lat="49.74590415135026" lon="6.096146944910288">
        <ele>236.14</ele>
        <time>2024-12-29T14:47:55.803Z</time>
      </trkpt>
      <trkpt lat="49.746005991473794" lon="6.096391947939992">
        <ele>236.25</ele>
        <time>2024-12-29T14:47:56.538Z</time>
      </trkpt>
      <trkpt lat="49.74601697176695" lon="6.096466965973377">
        <ele>236.31</ele>
        <time>2024-12-29T14:47:57.279Z</time>
      </trkpt>
      <trkpt lat="49.746167259290814" lon="6.096826130524278">
        <ele>236.37</ele>
        <time>2024-12-29T14:47:58.057Z</time>
      </trkpt>
      <trkpt lat="49.74631696008146" lon="6.097183953970671">
        <ele>236.21</ele>
        <time>2024-12-29T14:47:58.872Z</time>
      </trkpt>
      <trkpt lat="49.74641712382436" lon="6.0974380094558">
        <ele>236.08</ele>
        <time>2024-12-29T14:47:59.713Z</time>
      </trkpt>
      <trkpt lat="49.74651695229113" lon="6.097690975293517">
        <ele>235.9</ele>
        <time>2024-12-29T14:48:00.579Z</time>
      </trkpt>
      <trkpt lat="49.746629521250725" lon="6.097973193973303">
        <ele>235.75</ele>
        <time>2024-12-29T14:48:01.474Z</time>
      </trkpt>
      <trkpt lat="49.74674209021032" lon="6.098255412653089">
        <ele>235.64</ele>
        <time>2024-12-29T14:48:02.398Z</time>
      </trkpt>
      <trkpt lat="49.74685398861766" lon="6.09853595495224">
        <ele>235.47</ele>
        <time>2024-12-29T14:48:03.350Z</time>
      </trkpt>
      <trkpt lat="49.74691995419562" lon="6.098731923848391">
        <ele>235.24</ele>
        <time>2024-12-29T14:48:04.321Z</time>
      </trkpt>
      <trkpt lat="49.74698214791715" lon="6.0989926010370255">
        <ele>234.95</ele>
        <time>2024-12-29T14:48:05.316Z</time>
      </trkpt>
      <trkpt lat="49.747043922543526" lon="6.099251937121153">
        <ele>234.61</ele>
        <time>2024-12-29T14:48:06.335Z</time>
      </trkpt>
      <trkpt lat="49.74705599248409" lon="6.099446984007955">
        <ele>234.21</ele>
        <time>2024-12-29T14:48:07.371Z</time>
      </trkpt>
      <trkpt lat="49.74704995751381" lon="6.099738925695419">
        <ele>233.73</ele>
        <time>2024-12-29T14:48:08.432Z</time>
      </trkpt>
      <trkpt lat="49.74701592698693" lon="6.100102951750159">
        <ele>233.27</ele>
        <time>2024-12-29T14:48:09.525Z</time>
      </trkpt>
      <trkpt lat="49.74692196585238" lon="6.100502936169505">
        <ele>232.67</ele>
        <time>2024-12-29T14:48:10.655Z</time>
      </trkpt>
      <trkpt lat="49.74682171829045" lon="6.100931502878666">
        <ele>232.04</ele>
        <time>2024-12-29T14:48:11.824Z</time>
      </trkpt>
      <trkpt lat="49.74672197364271" lon="6.101357974112034">
        <ele>231.38</ele>
        <time>2024-12-29T14:48:13.033Z</time>
      </trkpt>
      <trkpt lat="49.74668492563069" lon="6.1015179846435785">
        <ele>230.86</ele>
        <time>2024-12-29T14:48:14.256Z</time>
      </trkpt>
      <trkpt lat="49.74666095338762" lon="6.101618986576796">
        <ele>230.37</ele>
        <time>2024-12-29T14:48:15.489Z</time>
      </trkpt>
      <trkpt lat="49.74658492952585" lon="6.101943952962756">
        <ele>229.81</ele>
        <time>2024-12-29T14:48:16.752Z</time>
      </trkpt>
      <trkpt lat="49.74656397476792" lon="6.102024922147393">
        <ele>229.38</ele>
        <time>2024-12-29T14:48:18.022Z</time>
      </trkpt>
      <trkpt lat="49.74663597531617" lon="6.10221192240715">
        <ele>229.03</ele>
        <time>2024-12-29T14:48:19.311Z</time>
      </trkpt>
      <trkpt lat="49.74665894173086" lon="6.1022639740258455">
        <ele>228.71</ele>
        <time>2024-12-29T14:48:20.605Z</time>
      </trkpt>
      <trkpt lat="49.746693978086114" lon="6.1023499723523855">
        <ele>228.43</ele>
        <time>2024-12-29T14:48:21.908Z</time>
      </trkpt>
      <trkpt lat="49.746720967814326" lon="6.102462960407138">
        <ele>228.21</ele>
        <time>2024-12-29T14:48:23.222Z</time>
      </trkpt>
      <trkpt lat="49.74672297947109" lon="6.102570919319987">
        <ele>228.02</ele>
        <time>2024-12-29T14:48:24.545Z</time>
      </trkpt>
      <trkpt lat="49.746698923408985" lon="6.10266094096005">
        <ele>227.86</ele>
        <time>2024-12-29T14:48:25.876Z</time>
      </trkpt>
      <trkpt lat="49.74667897447944" lon="6.102698994800448">
        <ele>227.72</ele>
        <time>2024-12-29T14:48:27.212Z</time>
      </trkpt>
      <trkpt lat="49.74664192646742" lon="6.102769989520311">
        <ele>227.6</ele>
        <time>2024-12-29T14:48:28.555Z</time>
      </trkpt>
      <trkpt lat="49.746461967006326" lon="6.103056985884905">
        <ele>227.56</ele>
        <time>2024-12-29T14:48:29.933Z</time>
      </trkpt>
      <trkpt lat="49.74644394591451" lon="6.103168968111277">
        <ele>227.49</ele>
        <time>2024-12-29T14:48:31.321Z</time>
      </trkpt>
      <trkpt lat="49.74644495174289" lon="6.103193946182728">
        <ele>227.42</ele>
        <time>2024-12-29T14:48:32.711Z</time>
      </trkpt>
      <trkpt lat="49.74645098671317" lon="6.10326393507421">
        <ele>227.35</ele>
        <time>2024-12-29T14:48:34.107Z</time>
      </trkpt>
      <trkpt lat="49.746483927592635" lon="6.103366948664188">
        <ele>227.27</ele>
        <time>2024-12-29T14:48:35.513Z</time>
      </trkpt>
      <trkpt lat="49.74653497338295" lon="6.103481948375702">
        <ele>227.16</ele>
        <time>2024-12-29T14:48:36.931Z</time>
      </trkpt>
      <trkpt lat="49.74679699167609" lon="6.103553948923945">
        <ele>226.91</ele>
        <time>2024-12-29T14:48:38.385Z</time>
      </trkpt>
      <trkpt lat="49.74699296057224" lon="6.103619998320937">
        <ele>226.7</ele>
        <time>2024-12-29T14:48:39.865Z</time>
      </trkpt>
      <trkpt lat="49.74718892946839" lon="6.103685963898897">
        <ele>226.58</ele>
        <time>2024-12-29T14:48:41.372Z</time>
      </trkpt>
      <trkpt lat="49.747146936133504" lon="6.103824935853481">
        <ele>226.38</ele>
        <time>2024-12-29T14:48:42.893Z</time>
      </trkpt>
      <trkpt lat="49.7470589261502" lon="6.104111932218075">
        <ele>226.12</ele>
        <time>2024-12-29T14:48:44.441Z</time>
      </trkpt>
      <trkpt lat="49.747040988877416" lon="6.104252999648452">
        <ele>225.94</ele>
        <time>2024-12-29T14:48:46.001Z</time>
      </trkpt>
      <trkpt lat="49.747038977220654" lon="6.104347966611385">
        <ele>225.77</ele>
        <time>2024-12-29T14:48:47.570Z</time>
      </trkpt>
      <trkpt lat="49.74698097445071" lon="6.104452991858125">
        <ele>225.67</ele>
        <time>2024-12-29T14:48:49.151Z</time>
      </trkpt>
      <trkpt lat="49.74683697335422" lon="6.104732947424054">
        <ele>225.59</ele>
        <time>2024-12-29T14:48:50.762Z</time>
      </trkpt>
      <trkpt lat="49.74677695892751" lon="6.104887928813696">
        <ele>225.52</ele>
        <time>2024-12-29T14:48:52.389Z</time>
      </trkpt>
      <trkpt lat="49.74672499112785" lon="6.105069983750582">
        <ele>225.38</ele>
        <time>2024-12-29T14:48:54.033Z</time>
      </trkpt>
      <trkpt lat="49.74671099334955" lon="6.1051239632070065">
        <ele>225.23</ele>
        <time>2024-12-29T14:48:55.682Z</time>
      </trkpt>
      <trkpt lat="49.746632957831025" lon="6.105306940153241">
        <ele>225.1</ele>
        <time>2024-12-29T14:48:57.350Z</time>
      </trkpt>
      <trkpt lat="49.74654394201934" lon="6.105485977604985">
        <ele>224.97</ele>
        <time>2024-12-29T14:48:59.038Z</time>
      </trkpt>
      <trkpt lat="49.74656397476792" lon="6.105523947626352">
        <ele>224.8</ele>
        <time>2024-12-29T14:49:00.730Z</time>
      </trkpt>
      <trkpt lat="49.74658694118261" lon="6.1055919248610735">
        <ele>224.6</ele>
        <time>2024-12-29T14:49:02.429Z</time>
      </trkpt>
      <trkpt lat="49.74659398198128" lon="6.105705918744206">
        <ele>224.36</ele>
        <time>2024-12-29T14:49:04.138Z</time>
      </trkpt>
      <trkpt lat="49.74658291786909" lon="6.10577791929245">
        <ele>224.13</ele>
        <time>2024-12-29T14:49:05.853Z</time>
      </trkpt>
      <trkpt lat="49.746829932555556" lon="6.1059789173305035">
        <ele>223.84</ele>
        <time>2024-12-29T14:49:07.605Z</time>
      </trkpt>
      <trkpt lat="49.74691794253886" lon="6.106194918975234">
        <ele>223.54</ele>
        <time>2024-12-29T14:49:09.379Z</time>
      </trkpt>
      <trkpt lat="49.74709999747574" lon="6.106318971142173">
        <ele>223.21</ele>
        <time>2024-12-29T14:49:11.180Z</time>
      </trkpt>
      <trkpt lat="49.74724994972348" lon="6.106364987790585">
        <ele>222.91</ele>
        <time>2024-12-29T14:49:13.001Z</time>
      </trkpt>
      <trkpt lat="49.74735497497022" lon="6.1064209789037704">
        <ele>222.62</ele>
        <time>2024-12-29T14:49:14.837Z</time>
      </trkpt>
      <trkpt lat="49.747385988011956" lon="6.106451991945505">
        <ele>222.34</ele>
        <time>2024-12-29T14:49:16.678Z</time>
      </trkpt>
      <trkpt lat="49.747404931113124" lon="6.106534972786903">
        <ele>222.09</ele>
        <time>2024-12-29T14:49:18.527Z</time>
      </trkpt>
      <trkpt lat="49.74741792306304" lon="6.106661958619952">
        <ele>221.82</ele>
        <time>2024-12-29T14:49:20.387Z</time>
      </trkpt>
      <trkpt lat="49.74746092222631" lon="6.106812916696072">
        <ele>221.54</ele>
        <time>2024-12-29T14:49:22.261Z</time>
      </trkpt>
      <trkpt lat="49.74752395413816" lon="6.1069039441645145">
        <ele>221.27</ele>
        <time>2024-12-29T14:49:24.147Z</time>
      </trkpt>
      <trkpt lat="49.747745990753174" lon="6.107081975787878">
        <ele>220.97</ele>
        <time>2024-12-29T14:49:26.066Z</time>
      </trkpt>
      <trkpt lat="49.747856967151165" lon="6.10719395801425">
        <ele>220.69</ele>
        <time>2024-12-29T14:49:28.003Z</time>
      </trkpt>
      <trkpt lat="49.74790591746569" lon="6.107254978269339">
        <ele>220.47</ele>
        <time>2024-12-29T14:49:29.948Z</time>
      </trkpt>
      <trkpt lat="49.74793097935617" lon="6.107285991311073">
        <ele>220.28</ele>
        <time>2024-12-29T14:49:31.897Z</time>
      </trkpt>
      <trkpt lat="49.74800096824765" lon="6.107400991022587">
        <ele>220.09</ele>
        <time>2024-12-29T14:49:33.860Z</time>
      </trkpt>
      <trkpt lat="49.748051930218935" lon="6.107504926621914">
        <ele>219.97</ele>
        <time>2024-12-29T14:49:35.834Z</time>
      </trkpt>
      <trkpt lat="49.74806592799723" lon="6.10760198906064">
        <ele>219.87</ele>
        <time>2024-12-29T14:49:37.817Z</time>
      </trkpt>
      <trkpt lat="49.74806793965399" lon="6.107767950743437">
        <ele>219.8</ele>
        <time>2024-12-29T14:49:39.814Z</time>
      </trkpt>
      <trkpt lat="49.74808495491743" lon="6.10788295045495">
        <ele>219.76</ele>
        <time>2024-12-29T14:49:41.821Z</time>
      </trkpt>
      <trkpt lat="49.748132983222604" lon="6.107992921024561">
        <ele>219.76</ele>
        <time>2024-12-29T14:49:43.840Z</time>
      </trkpt>
      <trkpt lat="49.74818696267903" lon="6.108093922957778">
        <ele>219.78</ele>
        <time>2024-12-29T14:49:45.870Z</time>
      </trkpt>
      <trkpt lat="49.74823893047869" lon="6.108166929334402">
        <ele>219.84</ele>
        <time>2024-12-29T14:49:47.910Z</time>
      </trkpt>
      <trkpt lat="49.74829492159188" lon="6.108216969296336">
        <ele>219.92</ele>
        <time>2024-12-29T14:49:49.958Z</time>
      </trkpt>
      <trkpt lat="49.74848493933678" lon="6.108316965401173">
        <ele>220.02</ele>
        <time>2024-12-29T14:49:52.033Z</time>
      </trkpt>
      <trkpt lat="49.748501954600215" lon="6.108465995639563">
        <ele>220.15</ele>
        <time>2024-12-29T14:49:54.121Z</time>
      </trkpt>
      <trkpt lat="49.74852995015681" lon="6.108548976480961">
        <ele>220.31</ele>
        <time>2024-12-29T14:49:56.217Z</time>
      </trkpt>
      <trkpt lat="49.74857596680522" lon="6.108619971200824">
        <ele>220.49</ele>
        <time>2024-12-29T14:49:58.322Z</time>
      </trkpt>
      <trkpt lat="49.74864394403994" lon="6.1088379845023155">
        <ele>220.7</ele>
        <time>2024-12-29T14:50:00.448Z</time>
      </trkpt>
      <trkpt lat="49.74878459237516" lon="6.1091969814151525">
        <ele>220.92</ele>
        <time>2024-12-29T14:50:02.610Z</time>
      </trkpt>
      <trkpt lat="49.748925156891346" lon="6.109556062147021">
        <ele>221.08</ele>
        <time>2024-12-29T14:50:04.808Z</time>
      </trkpt>
      <trkpt lat="49.74906496703625" lon="6.109912963584065">
        <ele>221.29</ele>
        <time>2024-12-29T14:50:07.042Z</time>
      </trkpt>
      <trkpt lat="49.74907695315778" lon="6.109988987445831">
        <ele>221.49</ele>
        <time>2024-12-29T14:50:09.283Z</time>
      </trkpt>
      <trkpt lat="49.749081982299685" lon="6.110075991600752">
        <ele>221.68</ele>
        <time>2024-12-29T14:50:11.532Z</time>
      </trkpt>
      <trkpt lat="49.7490569204092" lon="6.110222926363349">
        <ele>221.87</ele>
        <time>2024-12-29T14:50:13.794Z</time>
      </trkpt>
      <trkpt lat="49.749124981462955" lon="6.110247988253832">
        <ele>222.02</ele>
        <time>2024-12-29T14:50:16.065Z</time>
      </trkpt>
      <trkpt lat="49.749208968132734" lon="6.110235918313265">
        <ele>222.16</ele>
        <time>2024-12-29T14:50:18.347Z</time>
      </trkpt>
      <trkpt lat="49.749270994216204" lon="6.110320994630456">
        <ele>222.28</ele>
        <time>2024-12-29T14:50:20.641Z</time>
      </trkpt>
      <trkpt lat="49.74932899698615" lon="6.110345972701907">
        <ele>222.36</ele>
        <time>2024-12-29T14:50:22.943Z</time>
      </trkpt>
      <trkpt lat="49.74937492981553" lon="6.110338931903243">
        <ele>222.41</ele>
        <time>2024-12-29T14:50:25.251Z</time>
      </trkpt>
      <trkpt lat="49.74967198446393" lon="6.110280929133296">
        <ele>222.31</ele>
        <time>2024-12-29T14:50:27.599Z</time>
      </trkpt>
      <trkpt lat="49.74972194060683" lon="6.110315965488553">
        <ele>222.31</ele>
        <time>2024-12-29T14:50:29.954Z</time>
      </trkpt>
      <trkpt lat="49.749965937808156" lon="6.110296435654163">
        <ele>222.29</ele>
        <time>2024-12-29T14:50:32.342Z</time>
      </trkpt>
      <trkpt lat="49.75020993500948" lon="6.110276989638805">
        <ele>222.37</ele>
        <time>2024-12-29T14:50:34.762Z</time>
      </trkpt>
      <trkpt lat="49.75040095858276" lon="6.110215969383717">
        <ele>222.4</ele>
        <time>2024-12-29T14:50:37.208Z</time>
      </trkpt>
      <trkpt lat="49.750583935528994" lon="6.110117984935641">
        <ele>222.46</ele>
        <time>2024-12-29T14:50:39.680Z</time>
      </trkpt>
      <trkpt lat="49.75070798769593" lon="6.110030980780721">
        <ele>222.43</ele>
        <time>2024-12-29T14:50:42.170Z</time>
      </trkpt>
      <trkpt lat="49.750838074833155" lon="6.109864264726639">
        <ele>222.43</ele>
        <time>2024-12-29T14:50:44.683Z</time>
      </trkpt>
      <trkpt lat="49.75096799433231" lon="6.1096979677677155">
        <ele>222.48</ele>
        <time>2024-12-29T14:50:47.218Z</time>
      </trkpt>
      <trkpt lat="49.75101292133331" lon="6.109597971662879">
        <ele>222.52</ele>
        <time>2024-12-29T14:50:49.764Z</time>
      </trkpt>
      <trkpt lat="49.751143930479884" lon="6.109408959746361">
        <ele>222.55</ele>
        <time>2024-12-29T14:50:52.334Z</time>
      </trkpt>
      <trkpt lat="49.75119992159307" lon="6.109330924227834">
        <ele>222.6</ele>
        <time>2024-12-29T14:50:54.914Z</time>
      </trkpt>
      <trkpt lat="49.75121894851327" lon="6.10929798334837">
        <ele>222.67</ele>
        <time>2024-12-29T14:50:57.498Z</time>
      </trkpt>
      <trkpt lat="49.75125993601978" lon="6.109335953369737">
        <ele>222.75</ele>
        <time>2024-12-29T14:51:00.088Z</time>
      </trkpt>
      <trkpt lat="49.751294972375035" lon="6.109370989724994">
        <ele>222.85</ele>
        <time>2024-12-29T14:51:02.684Z</time>
      </trkpt>
      <trkpt lat="49.751416593790054" lon="6.1095471773296595">
        <ele>222.99</ele>
        <time>2024-12-29T14:51:05.302Z</time>
      </trkpt>
      <trkpt lat="49.75153796374798" lon="6.109722945839167">
        <ele>223.12</ele>
        <time>2024-12-29T14:51:07.942Z</time>
      </trkpt>
      <trkpt lat="49.7516889218241" lon="6.109944982454181">
        <ele>223.24</ele>
        <time>2024-12-29T14:51:10.610Z</time>
      </trkpt>
      <trkpt lat="49.75176393985748" lon="6.110032992437482">
        <ele>223.36</ele>
        <time>2024-12-29T14:51:13.291Z</time>
      </trkpt>
      <trkpt lat="49.75184599868953" lon="6.110060987994075">
        <ele>223.47</ele>
        <time>2024-12-29T14:51:15.983Z</time>
      </trkpt>
      <trkpt lat="49.75188162177801" lon="6.110063586384058">
        <ele>223.57</ele>
        <time>2024-12-29T14:51:18.680Z</time>
      </trkpt>
      <trkpt lat="49.75197893567383" lon="6.110070962458849">
        <ele>223.68</ele>
        <time>2024-12-29T14:51:21.390Z</time>
      </trkpt>
      <trkpt lat="49.75197893567383" lon="6.110112955793738">
        <ele>223.76</ele>
        <time>2024-12-29T14:51:24.103Z</time>
      </trkpt>
      <trkpt lat="49.752178927883506" lon="6.110113961622119">
        <ele>223.83</ele>
        <time>2024-12-29T14:51:26.843Z</time>
      </trkpt>
      <trkpt lat="49.752347990870476" lon="6.110112955793738">
        <ele>223.89</ele>
        <time>2024-12-29T14:51:29.605Z</time>
      </trkpt>
      <trkpt lat="49.75235997699201" lon="6.110112955793738">
        <ele>223.93</ele>
        <time>2024-12-29T14:51:32.369Z</time>
      </trkpt>
      <trkpt lat="49.75238596089184" lon="6.110112955793738">
        <ele>223.95</ele>
        <time>2024-12-29T14:51:35.137Z</time>
      </trkpt>
      <trkpt lat="49.752412950620055" lon="6.110182944685221">
        <ele>223.97</ele>
        <time>2024-12-29T14:51:37.912Z</time>
      </trkpt>
      <trkpt lat="49.75241898559034" lon="6.110169952735305">
        <ele>223.96</ele>
        <time>2024-12-29T14:51:40.688Z</time>
      </trkpt>
      <trkpt lat="49.75244798697531" lon="6.110127959400415">
        <ele>223.94</ele>
        <time>2024-12-29T14:51:43.469Z</time>
      </trkpt>
      <trkpt lat="49.75246399641037" lon="6.110103987157345">
        <ele>223.91</ele>
        <time>2024-12-29T14:51:46.253Z</time>
      </trkpt>
      <trkpt lat="49.752520993351936" lon="6.110123936086893">
        <ele>223.86</ele>
        <time>2024-12-29T14:51:49.045Z</time>
      </trkpt>
      <trkpt lat="49.75257497280836" lon="6.1101229302585125">
        <ele>223.79</ele>
        <time>2024-12-29T14:51:51.844Z</time>
      </trkpt>
      <trkpt lat="49.752629958093166" lon="6.110121924430132">
        <ele>223.71</ele>
        <time>2024-12-29T14:51:54.651Z</time>
      </trkpt>
      <trkpt lat="49.75285291671753" lon="6.11011597327888">
        <ele>223.58</ele>
        <time>2024-12-29T14:51:57.487Z</time>
      </trkpt>
      <trkpt lat="49.75285895168781" lon="6.11011597327888">
        <ele>223.5</ele>
        <time>2024-12-29T14:52:00.324Z</time>
      </trkpt>
      <trkpt lat="49.75303899496794" lon="6.110111949965358">
        <ele>223.37</ele>
        <time>2024-12-29T14:52:03.185Z</time>
      </trkpt>
      <trkpt lat="49.75322398357093" lon="6.110107926651835">
        <ele>223.31</ele>
        <time>2024-12-29T14:52:06.071Z</time>
      </trkpt>
      <trkpt lat="49.75325893610716" lon="6.110106920823455">
        <ele>223.24</ele>
        <time>2024-12-29T14:52:08.962Z</time>
      </trkpt>
      <trkpt lat="49.753440991044044" lon="6.110106920823455">
        <ele>223.2</ele>
        <time>2024-12-29T14:52:11.877Z</time>
      </trkpt>
      <trkpt lat="49.75350494496524" lon="6.110104992985725">
        <ele>223.12</ele>
        <time>2024-12-29T14:52:14.800Z</time>
      </trkpt>
      <trkpt lat="49.75364794023335" lon="6.110101975500584">
        <ele>223.04</ele>
        <time>2024-12-29T14:52:17.742Z</time>
      </trkpt>
      <trkpt lat="49.75368792191148" lon="6.110081942752004">
        <ele>222.95</ele>
        <time>2024-12-29T14:52:20.690Z</time>
      </trkpt>
      <trkpt lat="49.753747936338186" lon="6.11005294136703">
        <ele>222.85</ele>
        <time>2024-12-29T14:52:23.646Z</time>
      </trkpt>
      <trkpt lat="49.75384692661464" lon="6.11005193553865">
        <ele>222.75</ele>
        <time>2024-12-29T14:52:26.616Z</time>
      </trkpt>
      <trkpt lat="49.753939965739846" lon="6.110068950802088">
        <ele>222.61</ele>
        <time>2024-12-29T14:52:29.598Z</time>
      </trkpt>
      <trkpt lat="49.753999980166554" lon="6.110112955793738">
        <ele>222.5</ele>
        <time>2024-12-29T14:52:32.589Z</time>
      </trkpt>
      <trkpt lat="49.754089917987585" lon="6.110221920534968">
        <ele>222.38</ele>
        <time>2024-12-29T14:52:35.595Z</time>
      </trkpt>
      <trkpt lat="49.75411799736321" lon="6.110238935798407">
        <ele>222.25</ele>
        <time>2024-12-29T14:52:38.605Z</time>
      </trkpt>
      <trkpt lat="49.75424598902464" lon="6.110241953283548">
        <ele>222.11</ele>
        <time>2024-12-29T14:52:41.632Z</time>
      </trkpt>
      <trkpt lat="49.75427398458123" lon="6.110255951061845">
        <ele>221.96</ele>
        <time>2024-12-29T14:52:44.663Z</time>
      </trkpt>
      <trkpt lat="49.75428798235953" lon="6.110290987417102">
        <ele>221.8</ele>
        <time>2024-12-29T14:52:47.698Z</time>
      </trkpt>
      <trkpt lat="49.754303991794586" lon="6.110532972961664">
        <ele>221.59</ele>
        <time>2024-12-29T14:52:50.754Z</time>
      </trkpt>
      <trkpt lat="49.75430893711746" lon="6.110566919669509">
        <ele>221.43</ele>
        <time>2024-12-29T14:52:53.813Z</time>
      </trkpt>
      <trkpt lat="49.754323940724134" lon="6.110593993216753">
        <ele>221.28</ele>
        <time>2024-12-29T14:52:56.875Z</time>
      </trkpt>
      <trkpt lat="49.754344979301095" lon="6.110606985166669">
        <ele>221.15</ele>
        <time>2024-12-29T14:52:59.940Z</time>
      </trkpt>
      <trkpt lat="49.754580929875374" lon="6.110628945752978">
        <ele>221.04</ele>
        <time>2024-12-29T14:53:03.037Z</time>
      </trkpt>
      <trkpt lat="49.754627952352166" lon="6.11067496240139">
        <ele>220.92</ele>
        <time>2024-12-29T14:53:06.141Z</time>
      </trkpt>
      <trkpt lat="49.754667934030294" lon="6.1107319593429565">
        <ele>220.82</ele>
        <time>2024-12-29T14:53:09.252Z</time>
      </trkpt>
      <trkpt lat="49.75469693541527" lon="6.110687954351306">
        <ele>220.76</ele>
        <time>2024-12-29T14:53:12.369Z</time>
      </trkpt>
      <trkpt lat="49.75474395789206" lon="6.110658952966332">
        <ele>220.71</ele>
        <time>2024-12-29T14:53:15.493Z</time>
      </trkpt>
      <trkpt lat="49.75479098036885" lon="6.110642943531275">
        <ele>220.66</ele>
        <time>2024-12-29T14:53:18.623Z</time>
      </trkpt>
      <trkpt lat="49.754988960921764" lon="6.110618971288204">
        <ele>220.65</ele>
        <time>2024-12-29T14:53:21.779Z</time>
      </trkpt>
      <trkpt lat="49.755077976733446" lon="6.110624922439456">
        <ele>220.67</ele>
        <time>2024-12-29T14:53:24.947Z</time>
      </trkpt>
      <trkpt lat="49.755141930654645" lon="6.1106539238244295">
        <ele>220.71</ele>
        <time>2024-12-29T14:53:28.124Z</time>
      </trkpt>
      <trkpt lat="49.75521191954613" lon="6.110679991543293">
        <ele>220.78</ele>
        <time>2024-12-29T14:53:31.311Z</time>
      </trkpt>
      <trkpt lat="49.755480978637934" lon="6.1106939893215895">
        <ele>220.88</ele>
        <time>2024-12-29T14:53:34.534Z</time>
      </trkpt>
      <trkpt lat="49.75567049346864" lon="6.110716452822089">
        <ele>220.98</ele>
        <time>2024-12-29T14:53:37.782Z</time>
      </trkpt>
      <trkpt lat="49.75585992448032" lon="6.110738916322589">
        <ele>221.07</ele>
        <time>2024-12-29T14:53:41.056Z</time>
      </trkpt>
      <trkpt lat="49.755948940292" lon="6.110730953514576">
        <ele>221.22</ele>
        <time>2024-12-29T14:53:44.341Z</time>
      </trkpt>
      <trkpt lat="49.75622998550534" lon="6.110652917996049">
        <ele>221.44</ele>
        <time>2024-12-29T14:53:47.665Z</time>
      </trkpt>
      <trkpt lat="49.75641991943121" lon="6.110566919669509">
        <ele>221.79</ele>
        <time>2024-12-29T14:53:51.015Z</time>
      </trkpt>
      <trkpt lat="49.75667799822986" lon="6.110429959371686">
        <ele>222.16</ele>
        <time>2024-12-29T14:53:54.401Z</time>
      </trkpt>
      <trkpt lat="49.75682996213436" lon="6.110366424545646">
        <ele>222.4</ele>
        <time>2024-12-29T14:53:57.808Z</time>
      </trkpt>
      <trkpt lat="49.75698192603886" lon="6.110302973538637">
        <ele>222.61</ele>
        <time>2024-12-29T14:54:01.236Z</time>
      </trkpt>
      <trkpt lat="49.757204968482256" lon="6.110225943848491">
        <ele>222.76</ele>
        <time>2024-12-29T14:54:04.695Z</time>
      </trkpt>
      <trkpt lat="49.75736196152866" lon="6.110148997977376">
        <ele>222.97</ele>
        <time>2024-12-29T14:54:08.176Z</time>
      </trkpt>
      <trkpt lat="49.75762993097305" lon="6.109945988282561">
        <ele>223.25</ele>
        <time>2024-12-29T14:54:11.697Z</time>
      </trkpt>
      <trkpt lat="49.75785356014967" lon="6.109748343005776">
        <ele>223.45</ele>
        <time>2024-12-29T14:54:15.252Z</time>
      </trkpt>
      <trkpt lat="49.757853811606765" lon="6.109748175367713">
        <ele>223.67</ele>
        <time>2024-12-29T14:54:18.807Z</time>
      </trkpt>
      <trkpt lat="49.758077608421445" lon="6.109550362452865">
        <ele>223.9</ele>
        <time>2024-12-29T14:54:22.397Z</time>
      </trkpt>
      <trkpt lat="49.758300986140966" lon="6.109352968633175">
        <ele>224.03</ele>
        <time>2024-12-29T14:54:26.021Z</time>
      </trkpt>
      <trkpt lat="49.75854657590389" lon="6.10915532335639">
        <ele>224.25</ele>
        <time>2024-12-29T14:54:29.682Z</time>
      </trkpt>
      <trkpt lat="49.758791998028755" lon="6.1089579295367">
        <ele>224.52</ele>
        <time>2024-12-29T14:54:33.380Z</time>
      </trkpt>
      <trkpt lat="49.7590659186244" lon="6.108767995610833">
        <ele>224.71</ele>
        <time>2024-12-29T14:54:37.118Z</time>
      </trkpt>
      <trkpt lat="49.759244956076145" lon="6.108668921515346">
        <ele>224.74</ele>
        <time>2024-12-29T14:54:40.881Z</time>
      </trkpt>
      <trkpt lat="49.75944695994258" lon="6.10858996398747">
        <ele>224.76</ele>
        <time>2024-12-29T14:54:44.672Z</time>
      </trkpt>
      <trkpt lat="49.759655920788646" lon="6.108541935682297">
        <ele>224.73</ele>
        <time>2024-12-29T14:54:48.491Z</time>
      </trkpt>
      <trkpt lat="49.75991944782436" lon="6.10852693207562">
        <ele>224.61</ele>
        <time>2024-12-29T14:54:52.345Z</time>
      </trkpt>
      <trkpt lat="49.76018297486007" lon="6.108511928468943">
        <ele>224.37</ele>
        <time>2024-12-29T14:54:56.235Z</time>
      </trkpt>
      <trkpt lat="49.76046393625438" lon="6.108541935682297">
        <ele>224.13</ele>
        <time>2024-12-29T14:55:00.162Z</time>
      </trkpt>
      <trkpt lat="49.76072997786105" lon="6.1086079850792885">
        <ele>223.99</ele>
        <time>2024-12-29T14:55:04.125Z</time>
      </trkpt>
      <trkpt lat="49.76099291816354" lon="6.108727930113673">
        <ele>223.78</ele>
        <time>2024-12-29T14:55:08.125Z</time>
      </trkpt>
      <trkpt lat="49.76116348989308" lon="6.108829015865922">
        <ele>223.53</ele>
        <time>2024-12-29T14:55:12.149Z</time>
      </trkpt>
      <trkpt lat="49.761328948661685" lon="6.108927000313997">
        <ele>223.24</ele>
        <time>2024-12-29T14:55:16.197Z</time>
      </trkpt>
      <trkpt lat="49.76133397780359" lon="6.108929933980107">
        <ele>222.93</ele>
        <time>2024-12-29T14:55:20.246Z</time>
      </trkpt>
      <trkpt lat="49.76158769801259" lon="6.109104193747044">
        <ele>222.62</ele>
        <time>2024-12-29T14:55:24.332Z</time>
      </trkpt>
      <trkpt lat="49.76184141822159" lon="6.109278537333012">
        <ele>222.25</ele>
        <time>2024-12-29T14:55:28.455Z</time>
      </trkpt>
      <trkpt lat="49.762095138430595" lon="6.109452797099948">
        <ele>221.81</ele>
        <time>2024-12-29T14:55:32.615Z</time>
      </trkpt>
      <trkpt lat="49.762348774820566" lon="6.109627056866884">
        <ele>221.3</ele>
        <time>2024-12-29T14:55:36.812Z</time>
      </trkpt>
      <trkpt lat="49.76260199211538" lon="6.109800981357694">
        <ele>220.89</ele>
        <time>2024-12-29T14:55:41.046Z</time>
      </trkpt>
      <trkpt lat="49.76286359131336" lon="6.109974989667535">
        <ele>220.47</ele>
        <time>2024-12-29T14:55:45.318Z</time>
      </trkpt>
      <trkpt lat="49.763125190511346" lon="6.110149081796408">
        <ele>219.99</ele>
        <time>2024-12-29T14:55:49.628Z</time>
      </trkpt>
      <trkpt lat="49.76338678970933" lon="6.110323173925281">
        <ele>219.56</ele>
        <time>2024-12-29T14:55:53.976Z</time>
      </trkpt>
      <trkpt lat="49.763647969812155" lon="6.110496930778027">
        <ele>219.13</ele>
        <time>2024-12-29T14:55:58.362Z</time>
      </trkpt>
      <trkpt lat="49.763884926214814" lon="6.110617965459824">
        <ele>218.66</ele>
        <time>2024-12-29T14:56:02.781Z</time>
      </trkpt>
      <trkpt lat="49.76415398530662" lon="6.1107249185442924">
        <ele>218.13</ele>
        <time>2024-12-29T14:56:07.237Z</time>
      </trkpt>
      <trkpt lat="49.764335956424475" lon="6.110775964334607">
        <ele>217.61</ele>
        <time>2024-12-29T14:56:11.718Z</time>
      </trkpt>
      <trkpt lat="49.76462597027421" lon="6.110834972932935">
        <ele>217.03</ele>
        <time>2024-12-29T14:56:16.238Z</time>
      </trkpt>
      <trkpt lat="49.7648249566555" lon="6.110853999853134">
        <ele>216.59</ele>
        <time>2024-12-29T14:56:20.785Z</time>
      </trkpt>
      <trkpt lat="49.76512444205582" lon="6.110872775316238">
        <ele>216.22</ele>
        <time>2024-12-29T14:56:25.372Z</time>
      </trkpt>
      <trkpt lat="49.76542392745614" lon="6.110891634598374">
        <ele>215.96</ele>
        <time>2024-12-29T14:56:29.999Z</time>
      </trkpt>
      <trkpt lat="49.76572341285646" lon="6.11091049388051">
        <ele>215.75</ele>
        <time>2024-12-29T14:56:34.666Z</time>
      </trkpt>
      <trkpt lat="49.76602298207581" lon="6.110929269343615">
        <ele>215.57</ele>
        <time>2024-12-29T14:56:39.373Z</time>
      </trkpt>
      <trkpt lat="49.76632246747613" lon="6.1109481286257505">
        <ele>215.39</ele>
        <time>2024-12-29T14:56:44.120Z</time>
      </trkpt>
      <trkpt lat="49.76662195287645" lon="6.1109669879078865">
        <ele>215.32</ele>
        <time>2024-12-29T14:56:48.907Z</time>
      </trkpt>
      <trkpt lat="49.766700994223356" lon="6.111003952100873">
        <ele>215.22</ele>
        <time>2024-12-29T14:56:53.705Z</time>
      </trkpt>
      <trkpt lat="49.76696938276291" lon="6.111166980117559">
        <ele>215.11</ele>
        <time>2024-12-29T14:56:58.541Z</time>
      </trkpt>
      <trkpt lat="49.76723785512149" lon="6.111330091953278">
        <ele>214.97</ele>
        <time>2024-12-29T14:57:03.416Z</time>
      </trkpt>
      <trkpt lat="49.76750599220395" lon="6.111492952331901">
        <ele>214.87</ele>
        <time>2024-12-29T14:57:08.329Z</time>
      </trkpt>
      <trkpt lat="49.7675639949739" lon="6.1115209478884935">
        <ele>214.9</ele>
        <time>2024-12-29T14:57:13.250Z</time>
      </trkpt>
      <trkpt lat="49.767621997743845" lon="6.111498987302184">
        <ele>215.03</ele>
        <time>2024-12-29T14:57:18.179Z</time>
      </trkpt>
      <trkpt lat="49.767749989405274" lon="6.111370995640755">
        <ele>215.26</ele>
        <time>2024-12-29T14:57:23.129Z</time>
      </trkpt>
      <trkpt lat="49.76777111180127" lon="6.111355070024729">
        <ele>215.45</ele>
        <time>2024-12-29T14:57:28.082Z</time>
      </trkpt>
      <trkpt lat="49.76783397607505" lon="6.111307963728905">
        <ele>215.7</ele>
        <time>2024-12-29T14:57:33.044Z</time>
      </trkpt>
      <trkpt lat="49.76810161024332" lon="6.11110839061439">
        <ele>216.04</ele>
        <time>2024-12-29T14:57:38.046Z</time>
      </trkpt>
      <trkpt lat="49.76836899295449" lon="6.1109089851379395">
        <ele>216.33</ele>
        <time>2024-12-29T14:57:43.087Z</time>
      </trkpt>
      <trkpt lat="49.76843093521893" lon="6.110892975702882">
        <ele>216.68</ele>
        <time>2024-12-29T14:57:48.137Z</time>
      </trkpt>
      <trkpt lat="49.768409980461" lon="6.110591981559992">
        <ele>217.02</ele>
        <time>2024-12-29T14:57:53.213Z</time>
      </trkpt>
      <trkpt lat="49.76840595714748" lon="6.110530961304903">
        <ele>217.39</ele>
        <time>2024-12-29T14:57:58.294Z</time>
      </trkpt>
      <trkpt lat="49.76840293966234" lon="6.110429959371686">
        <ele>217.77</ele>
        <time>2024-12-29T14:58:03.384Z</time>
      </trkpt>
      <trkpt lat="49.768439987674356" lon="6.110379919409752">
        <ele>218.19</ele>
        <time>2024-12-29T14:58:08.480Z</time>
      </trkpt>
      <trkpt lat="49.768502935767174" lon="6.110339937731624">
        <ele>218.61</ele>
        <time>2024-12-29T14:58:13.586Z</time>
      </trkpt>
      <trkpt lat="49.7687569912523" lon="6.110198954120278">
        <ele>219.02</ele>
        <time>2024-12-29T14:58:18.728Z</time>
      </trkpt>
      <trkpt lat="49.76883192546666" lon="6.110134916380048">
        <ele>219.4</ele>
        <time>2024-12-29T14:58:23.881Z</time>
      </trkpt>
      <trkpt lat="49.769029235467315" lon="6.10985261388123">
        <ele>219.87</ele>
        <time>2024-12-29T14:58:29.070Z</time>
      </trkpt>
      <trkpt lat="49.76922595873475" lon="6.109570981934667">
        <ele>220.32</ele>
        <time>2024-12-29T14:58:34.295Z</time>
      </trkpt>
      <trkpt lat="49.76933299563825" lon="6.109433937817812">
        <ele>220.68</ele>
        <time>2024-12-29T14:58:39.538Z</time>
      </trkpt>
      <trkpt lat="49.76957296952605" lon="6.109157921746373">
        <ele>220.99</ele>
        <time>2024-12-29T14:58:44.821Z</time>
      </trkpt>
      <trkpt lat="49.76972099393606" lon="6.108945943415165">
        <ele>221.14</ele>
        <time>2024-12-29T14:58:50.131Z</time>
      </trkpt>
      <trkpt lat="49.769790982827544" lon="6.108820969238877">
        <ele>221.26</ele>
        <time>2024-12-29T14:58:55.455Z</time>
      </trkpt>
      <trkpt lat="49.76984295062721" lon="6.108701946213841">
        <ele>221.33</ele>
        <time>2024-12-29T14:59:00.792Z</time>
      </trkpt>
      <trkpt lat="49.76986499503255" lon="6.108727930113673">
        <ele>221.35</ele>
        <time>2024-12-29T14:59:06.133Z</time>
      </trkpt>
      <trkpt lat="49.76988393813372" lon="6.108747962862253">
        <ele>221.33</ele>
        <time>2024-12-29T14:59:11.477Z</time>
      </trkpt>
      <trkpt lat="49.77014796808362" lon="6.108710998669267">
        <ele>221.2</ele>
        <time>2024-12-29T14:59:16.856Z</time>
      </trkpt>
      <trkpt lat="49.770371010527015" lon="6.1086109187453985">
        <ele>221.05</ele>
        <time>2024-12-29T14:59:22.266Z</time>
      </trkpt>
      <trkpt lat="49.77059396915138" lon="6.108510922640562">
        <ele>220.82</ele>
        <time>2024-12-29T14:59:27.707Z</time>
      </trkpt>
      <trkpt lat="49.77069094777107" lon="6.108416961506009">
        <ele>220.63</ele>
        <time>2024-12-29T14:59:33.163Z</time>
      </trkpt>
      <trkpt lat="49.77082195691764" lon="6.108264997601509">
        <ele>220.44</ele>
        <time>2024-12-29T14:59:38.641Z</time>
      </trkpt>
      <trkpt lat="49.77089898660779" lon="6.108145974576473">
        <ele>220.23</ele>
        <time>2024-12-29T14:59:44.134Z</time>
      </trkpt>
      <trkpt lat="49.77091994136572" lon="6.108066933229566">
        <ele>220.02</ele>
        <time>2024-12-29T14:59:49.634Z</time>
      </trkpt>
      <trkpt lat="49.770929999649525" lon="6.107996944338083">
        <ele>219.8</ele>
        <time>2024-12-29T14:59:55.140Z</time>
      </trkpt>
      <trkpt lat="49.77091994136572" lon="6.107878927141428">
        <ele>219.57</ele>
        <time>2024-12-29T15:00:00.657Z</time>
      </trkpt>
      <trkpt lat="49.77078516036272" lon="6.107480116188526">
        <ele>219.36</ele>
        <time>2024-12-29T15:00:06.212Z</time>
      </trkpt>
      <trkpt lat="49.770650966092944" lon="6.107082981616259">
        <ele>219.07</ele>
        <time>2024-12-29T15:00:11.806Z</time>
      </trkpt>
      <trkpt lat="49.77063998579979" lon="6.107048951089382">
        <ele>218.84</ele>
        <time>2024-12-29T15:00:17.403Z</time>
      </trkpt>
      <trkpt lat="49.770666975528" lon="6.106920959427953">
        <ele>218.6</ele>
        <time>2024-12-29T15:00:23.012Z</time>
      </trkpt>
      <trkpt lat="49.770676949992776" lon="6.106803948059678">
        <ele>218.38</ele>
        <time>2024-12-29T15:00:28.631Z</time>
      </trkpt>
      <trkpt lat="49.770713998004794" lon="6.106799924746156">
        <ele>218.18</ele>
        <time>2024-12-29T15:00:34.255Z</time>
      </trkpt>
      <trkpt lat="49.77081399410963" lon="6.10678693279624">
        <ele>218.0</ele>
        <time>2024-12-29T15:00:39.893Z</time>
      </trkpt>
      <trkpt lat="49.77099093608558" lon="6.106745945289731">
        <ele>217.83</ele>
        <time>2024-12-29T15:00:45.555Z</time>
      </trkpt>
      <trkpt lat="49.771166956052184" lon="6.1066509783267975">
        <ele>217.71</ele>
        <time>2024-12-29T15:00:51.241Z</time>
      </trkpt>
      <trkpt lat="49.7713889926672" lon="6.106425924226642">
        <ele>217.72</ele>
        <time>2024-12-29T15:00:56.963Z</time>
      </trkpt>
      <trkpt lat="49.77158345282078" lon="6.106260549277067">
        <ele>217.77</ele>
        <time>2024-12-29T15:01:02.715Z</time>
      </trkpt>
      <trkpt lat="49.77177791297436" lon="6.106095090508461">
        <ele>217.86</ele>
        <time>2024-12-29T15:01:08.496Z</time>
      </trkpt>
      <trkpt lat="49.77197195403278" lon="6.105929967015982">
        <ele>218.05</ele>
        <time>2024-12-29T15:01:14.307Z</time>
      </trkpt>
      <trkpt lat="49.7722056414932" lon="6.105708768591285">
        <ele>218.29</ele>
        <time>2024-12-29T15:01:20.154Z</time>
      </trkpt>
      <trkpt lat="49.7724389936775" lon="6.105487989261746">
        <ele>218.58</ele>
        <time>2024-12-29T15:01:26.038Z</time>
      </trkpt>
      <trkpt lat="49.77253898978233" lon="6.105403918772936">
        <ele>218.94</ele>
        <time>2024-12-29T15:01:31.937Z</time>
      </trkpt>
      <trkpt lat="49.772734958678484" lon="6.105263940989971">
        <ele>219.37</ele>
        <time>2024-12-29T15:01:37.865Z</time>
      </trkpt>
      <trkpt lat="49.77302296087146" lon="6.105084987357259">
        <ele>219.98</ele>
        <time>2024-12-29T15:01:43.834Z</time>
      </trkpt>
      <trkpt lat="49.77326695807278" lon="6.104981973767281">
        <ele>220.66</ele>
        <time>2024-12-29T15:01:49.837Z</time>
      </trkpt>
      <trkpt lat="49.77345798164606" lon="6.104952972382307">
        <ele>221.47</ele>
        <time>2024-12-29T15:01:55.866Z</time>
      </trkpt>
      <trkpt lat="49.77360399439931" lon="6.104956995695829">
        <ele>222.28</ele>
        <time>2024-12-29T15:02:01.914Z</time>
      </trkpt>
      <trkpt lat="49.77389392443001" lon="6.105015920475125">
        <ele>223.12</ele>
        <time>2024-12-29T15:02:08.001Z</time>
      </trkpt>
      <trkpt lat="49.77399794384837" lon="6.105035953223705">
        <ele>223.93</ele>
        <time>2024-12-29T15:02:14.102Z</time>
      </trkpt>
      <trkpt lat="49.774174466729164" lon="6.105113485828042">
        <ele>224.88</ele>
        <time>2024-12-29T15:02:20.228Z</time>
      </trkpt>
      <trkpt lat="49.77435098960996" lon="6.105190934613347">
        <ele>225.83</ele>
        <time>2024-12-29T15:02:26.378Z</time>
      </trkpt>
      <trkpt lat="49.77453698404133" lon="6.105401990935206">
        <ele>226.35</ele>
        <time>2024-12-29T15:02:32.559Z</time>
      </trkpt>
      <trkpt lat="49.77469892241061" lon="6.10560298897326">
        <ele>227.02</ele>
        <time>2024-12-29T15:02:38.768Z</time>
      </trkpt>
      <trkpt lat="49.77490268647671" lon="6.105867773294449">
        <ele>227.7</ele>
        <time>2024-12-29T15:02:45.012Z</time>
      </trkpt>
      <trkpt lat="49.77510594762862" lon="6.106131970882416">
        <ele>228.33</ele>
        <time>2024-12-29T15:02:51.292Z</time>
      </trkpt>
      <trkpt lat="49.77528624236584" lon="6.106455093249679">
        <ele>228.63</ele>
        <time>2024-12-29T15:02:57.609Z</time>
      </trkpt>
      <trkpt lat="49.77546653710306" lon="6.106778299435973">
        <ele>228.77</ele>
        <time>2024-12-29T15:03:03.962Z</time>
      </trkpt>
      <trkpt lat="49.77564683184028" lon="6.107101505622268">
        <ele>228.73</ele>
        <time>2024-12-29T15:03:10.352Z</time>
      </trkpt>
      <trkpt lat="49.7758271265775" lon="6.107424627989531">
        <ele>228.76</ele>
        <time>2024-12-29T15:03:16.779Z</time>
      </trkpt>
      <trkpt lat="49.776007421314716" lon="6.107747834175825">
        <ele>228.58</ele>
        <time>2024-12-29T15:03:23.243Z</time>
      </trkpt>
      <trkpt lat="49.77618595585227" lon="6.108067939057946">
        <ele>228.2</ele>
        <time>2024-12-29T15:03:29.744Z</time>
      </trkpt>
      <trkpt lat="49.776322999969125" lon="6.108219986781478">
        <ele>227.81</ele>
        <time>2024-12-29T15:03:36.267Z</time>
      </trkpt>
      <trkpt lat="49.77643892168999" lon="6.10841897316277">
        <ele>227.34</ele>
        <time>2024-12-29T15:03:42.813Z</time>
      </trkpt>
      <trkpt lat="49.77659348398447" lon="6.108790207654238">
        <ele>226.92</ele>
        <time>2024-12-29T15:03:49.397Z</time>
      </trkpt>
      <trkpt lat="49.77674804627895" lon="6.109161442145705">
        <ele>226.56</ele>
        <time>2024-12-29T15:03:56.020Z</time>
      </trkpt>
      <trkpt lat="49.77690260857344" lon="6.109532676637173">
        <ele>226.21</ele>
        <time>2024-12-29T15:04:02.681Z</time>
      </trkpt>
      <trkpt lat="49.777055997401476" lon="6.10990097746253">
        <ele>225.78</ele>
        <time>2024-12-29T15:04:09.380Z</time>
      </trkpt>
      <trkpt lat="49.77711299434304" lon="6.110053947195411">
        <ele>225.36</ele>
        <time>2024-12-29T15:04:16.094Z</time>
      </trkpt>
      <trkpt lat="49.77717099711299" lon="6.110236924141645">
        <ele>224.91</ele>
        <time>2024-12-29T15:04:22.825Z</time>
      </trkpt>
      <trkpt lat="49.77724861353636" lon="6.110522160306573">
        <ele>224.4</ele>
        <time>2024-12-29T15:04:29.583Z</time>
      </trkpt>
      <trkpt lat="49.77732597850263" lon="6.110805971547961">
        <ele>223.85</ele>
        <time>2024-12-29T15:04:36.368Z</time>
      </trkpt>
      <trkpt lat="49.77748087607324" lon="6.111187683418393">
        <ele>223.37</ele>
        <time>2024-12-29T15:04:43.192Z</time>
      </trkpt>
      <trkpt lat="49.77763568982482" lon="6.111569479107857">
        <ele>222.85</ele>
        <time>2024-12-29T15:04:50.055Z</time>
      </trkpt>
      <trkpt lat="49.77779058739543" lon="6.111951190978289">
        <ele>222.32</ele>
        <time>2024-12-29T15:04:56.957Z</time>
      </trkpt>
      <trkpt lat="49.77794548496604" lon="6.112332986667752">
        <ele>221.81</ele>
        <time>2024-12-29T15:05:03.897Z</time>
      </trkpt>
      <trkpt lat="49.77810038253665" lon="6.112714698538184">
        <ele>221.39</ele>
        <time>2024-12-29T15:05:10.876Z</time>
      </trkpt>
      <trkpt lat="49.77825528010726" lon="6.113096494227648">
        <ele>220.8</ele>
        <time>2024-12-29T15:05:17.894Z</time>
      </trkpt>
      <trkpt lat="49.778407998383045" lon="6.113472925499082">
        <ele>220.12</ele>
        <time>2024-12-29T15:05:24.951Z</time>
      </trkpt>
      <trkpt lat="49.7784689348191" lon="6.1136069521307945">
        <ele>219.57</ele>
        <time>2024-12-29T15:05:32.022Z</time>
      </trkpt>
      <trkpt lat="49.77863196283579" lon="6.113891936838627">
        <ele>219.03</ele>
        <time>2024-12-29T15:05:39.126Z</time>
      </trkpt>
      <trkpt lat="49.77875014767051" lon="6.114092767238617">
        <ele>218.55</ele>
        <time>2024-12-29T15:05:46.253Z</time>
      </trkpt>
      <trkpt lat="49.7788679972291" lon="6.114292927086353">
        <ele>218.08</ele>
        <time>2024-12-29T15:05:53.404Z</time>
      </trkpt>
      <trkpt lat="49.77887084707618" lon="6.114343553781509">
        <ele>217.64</ele>
        <time>2024-12-29T15:06:00.559Z</time>
      </trkpt>
      <trkpt lat="49.77887093089521" lon="6.114343972876668">
        <ele>217.22</ele>
        <time>2024-12-29T15:06:07.714Z</time>
      </trkpt>
      <trkpt lat="49.778799936175346" lon="6.11473498865962">
        <ele>216.8</ele>
        <time>2024-12-29T15:06:14.904Z</time>
      </trkpt>
      <trkpt lat="49.77873698808253" lon="6.114976974204183">
        <ele>216.37</ele>
        <time>2024-12-29T15:06:22.117Z</time>
      </trkpt>
      <trkpt lat="49.77865073829889" lon="6.115300264209509">
        <ele>215.97</ele>
        <time>2024-12-29T15:06:29.360Z</time>
      </trkpt>
      <trkpt lat="49.77856499142945" lon="6.115621961653233">
        <ele>215.65</ele>
        <time>2024-12-29T15:06:36.633Z</time>
      </trkpt>
      <trkpt lat="49.77852794341743" lon="6.1157209519296885">
        <ele>215.43</ele>
        <time>2024-12-29T15:06:43.916Z</time>
      </trkpt>
      <trkpt lat="49.77856499142945" lon="6.115769986063242">
        <ele>215.25</ele>
        <time>2024-12-29T15:06:51.205Z</time>
      </trkpt>
      <trkpt lat="49.77861494757235" lon="6.115881968289614">
        <ele>215.1</ele>
        <time>2024-12-29T15:06:58.506Z</time>
      </trkpt>
      <trkpt lat="49.778625927865505" lon="6.11589496023953">
        <ele>215.05</ele>
        <time>2024-12-29T15:07:05.809Z</time>
      </trkpt>
      <trkpt lat="49.778690971434116" lon="6.115971989929676">
        <ele>215.03</ele>
        <time>2024-12-29T15:07:13.123Z</time>
      </trkpt>
      <trkpt lat="49.77884410880506" lon="6.1161241214722395">
        <ele>215.1</ele>
        <time>2024-12-29T15:07:20.461Z</time>
      </trkpt>
      <trkpt lat="49.77899699471891" lon="6.116275917738676">
        <ele>215.23</ele>
        <time>2024-12-29T15:07:27.823Z</time>
      </trkpt>
      <trkpt lat="49.778990959748626" lon="6.116297962144017">
        <ele>215.41</ele>
        <time>2024-12-29T15:07:35.188Z</time>
      </trkpt>
      <trkpt lat="49.7791219688952" lon="6.116370968520641">
        <ele>215.67</ele>
        <time>2024-12-29T15:07:42.571Z</time>
      </trkpt>
      <trkpt lat="49.77937191724777" lon="6.116490997374058">
        <ele>216.0</ele>
        <time>2024-12-29T15:07:49.989Z</time>
      </trkpt>
      <trkpt lat="49.77950896136463" lon="6.116538941860199">
        <ele>216.36</ele>
        <time>2024-12-29T15:07:57.426Z</time>
      </trkpt>
      <trkpt lat="49.77951197884977" lon="6.116510946303606">
        <ele>216.73</ele>
        <time>2024-12-29T15:08:04.865Z</time>
      </trkpt>
      <trkpt lat="49.77976527996361" lon="6.116561321541667">
        <ele>217.19</ele>
        <time>2024-12-29T15:08:12.338Z</time>
      </trkpt>
      <trkpt lat="49.78001866489649" lon="6.116611612960696">
        <ele>217.66</ele>
        <time>2024-12-29T15:08:19.845Z</time>
      </trkpt>
      <trkpt lat="49.78027196601033" lon="6.116661988198757">
        <ele>218.06</ele>
        <time>2024-12-29T15:08:27.387Z</time>
      </trkpt>
      <trkpt lat="49.780578995123506" lon="6.116761984303594">
        <ele>218.47</ele>
        <time>2024-12-29T15:08:34.970Z</time>
      </trkpt>
      <trkpt lat="49.78075694292784" lon="6.116793919354677">
        <ele>218.96</ele>
        <time>2024-12-29T15:08:42.577Z</time>
      </trkpt>
      <trkpt lat="49.78088996373117" lon="6.116789979860187">
        <ele>219.41</ele>
        <time>2024-12-29T15:08:50.202Z</time>
      </trkpt>
      <trkpt lat="49.78104846552014" lon="6.116766929626465">
        <ele>219.82</ele>
        <time>2024-12-29T15:08:57.848Z</time>
      </trkpt>
      <trkpt lat="49.78120696730912" lon="6.116743963211775">
        <ele>220.16</ele>
        <time>2024-12-29T15:09:05.516Z</time>
      </trkpt>
      <trkpt lat="49.78149798698723" lon="6.116680931299925">
        <ele>220.48</ele>
        <time>2024-12-29T15:09:13.223Z</time>
      </trkpt>
      <trkpt lat="49.78165749460459" lon="6.116652432829142">
        <ele>220.67</ele>
        <time>2024-12-29T15:09:20.951Z</time>
      </trkpt>
      <trkpt lat="49.78181691840291" lon="6.116623934358358">
        <ele>220.79</ele>
        <time>2024-12-29T15:09:28.701Z</time>
      </trkpt>
      <trkpt lat="49.782018922269344" lon="6.116598956286907">
        <ele>220.83</ele>
        <time>2024-12-29T15:09:36.478Z</time>
      </trkpt>
      <trkpt lat="49.782187985256314" lon="6.11656098626554">
        <ele>220.71</ele>
        <time>2024-12-29T15:09:44.278Z</time>
      </trkpt>
      <trkpt lat="49.78235696442425" lon="6.116522932425141">
        <ele>220.5</ele>
        <time>2024-12-29T15:09:52.100Z</time>
      </trkpt>
      <trkpt lat="49.782444974407554" lon="6.116480939090252">
        <ele>220.24</ele>
        <time>2024-12-29T15:09:59.935Z</time>
      </trkpt>
      <trkpt lat="49.78260850533843" lon="6.116405418142676">
        <ele>219.9</ele>
        <time>2024-12-29T15:10:07.792Z</time>
      </trkpt>
      <trkpt lat="49.782771952450275" lon="6.1163299810141325">
        <ele>219.53</ele>
        <time>2024-12-29T15:10:15.672Z</time>
      </trkpt>
      <trkpt lat="49.782878989353776" lon="6.116264937445521">
        <ele>219.14</ele>
        <time>2024-12-29T15:10:23.567Z</time>
      </trkpt>
      <trkpt lat="49.783078730106354" lon="6.11610216088593">
        <ele>218.72</ele>
        <time>2024-12-29T15:10:31.493Z</time>
      </trkpt>
      <trkpt lat="49.78327855467796" lon="6.1159394681453705">
        <ele>218.25</ele>
        <time>2024-12-29T15:10:39.449Z</time>
      </trkpt>
      <trkpt lat="49.783477960154414" lon="6.115776943042874">
        <ele>217.75</ele>
        <time>2024-12-29T15:10:47.435Z</time>
      </trkpt>
      <trkpt lat="49.783589942380786" lon="6.115663954988122">
        <ele>217.29</ele>
        <time>2024-12-29T15:10:55.439Z</time>
      </trkpt>
      <trkpt lat="49.78374199010432" lon="6.115486929193139">
        <ele>216.82</ele>
        <time>2024-12-29T15:11:03.468Z</time>
      </trkpt>
      <trkpt lat="49.783842992037535" lon="6.1154199577867985">
        <ele>216.33</ele>
        <time>2024-12-29T15:11:11.512Z</time>
      </trkpt>
      <trkpt lat="49.784081960096955" lon="6.1152909602969885">
        <ele>215.76</ele>
        <time>2024-12-29T15:11:19.590Z</time>
      </trkpt>
      <trkpt lat="49.78436996228993" lon="6.115112928673625">
        <ele>215.19</ele>
        <time>2024-12-29T15:11:27.709Z</time>
      </trkpt>
      <trkpt lat="49.784642960876226" lon="6.114964988082647">
        <ele>214.81</ele>
        <time>2024-12-29T15:11:35.867Z</time>
      </trkpt>
      <trkpt lat="49.7848014626652" lon="6.11490648239851">
        <ele>214.37</ele>
        <time>2024-12-29T15:11:44.046Z</time>
      </trkpt>
      <trkpt lat="49.784959964454174" lon="6.114847976714373">
        <ele>213.95</ele>
        <time>2024-12-29T15:11:52.247Z</time>
      </trkpt>
      <trkpt lat="49.78526699356735" lon="6.114788968116045">
        <ele>213.56</ele>
        <time>2024-12-29T15:12:00.489Z</time>
      </trkpt>
      <trkpt lat="49.78557293303311" lon="6.114781927317381">
        <ele>213.21</ele>
        <time>2024-12-29T15:12:08.772Z</time>
      </trkpt>
      <trkpt lat="49.78574199602008" lon="6.114794919267297">
        <ele>212.92</ele>
        <time>2024-12-29T15:12:17.078Z</time>
      </trkpt>
      <trkpt lat="49.78581382893026" lon="6.11480045132339">
        <ele>212.68</ele>
        <time>2024-12-29T15:12:25.393Z</time>
      </trkpt>
      <trkpt lat="49.78591097518802" lon="6.114807995036244">
        <ele>212.48</ele>
        <time>2024-12-29T15:12:33.721Z</time>
      </trkpt>
      <trkpt lat="49.78616092354059" lon="6.11488695256412">
        <ele>212.39</ele>
        <time>2024-12-29T15:12:42.083Z</time>
      </trkpt>
      <trkpt lat="49.786425959318876" lon="6.114990971982479">
        <ele>212.28</ele>
        <time>2024-12-29T15:12:50.482Z</time>
      </trkpt>
      <trkpt lat="49.786590496078134" lon="6.115074958652258">
        <ele>212.1</ele>
        <time>2024-12-29T15:12:58.904Z</time>
      </trkpt>
      <trkpt lat="49.78675494901836" lon="6.115158945322037">
        <ele>211.93</ele>
        <time>2024-12-29T15:13:07.349Z</time>
      </trkpt>
      <trkpt lat="49.78703691624105" lon="6.115373941138387">
        <ele>211.74</ele>
        <time>2024-12-29T15:13:15.836Z</time>
      </trkpt>
      <trkpt lat="49.787190053611994" lon="6.115521043539047">
        <ele>211.62</ele>
        <time>2024-12-29T15:13:24.347Z</time>
      </trkpt>
      <trkpt lat="49.78734293952584" lon="6.115667978301644">
        <ele>211.55</ele>
        <time>2024-12-29T15:13:32.882Z</time>
      </trkpt>
      <trkpt lat="49.78747512213886" lon="6.115819104015827">
        <ele>211.53</ele>
        <time>2024-12-29T15:13:41.439Z</time>
      </trkpt>
      <trkpt lat="49.787606969475746" lon="6.115969978272915">
        <ele>211.58</ele>
        <time>2024-12-29T15:13:50.018Z</time>
      </trkpt>
      <trkpt lat="49.787789192050695" lon="6.116254711523652">
        <ele>211.66</ele>
        <time>2024-12-29T15:13:58.632Z</time>
      </trkpt>
      <trkpt lat="49.787971498444676" lon="6.116539444774389">
        <ele>211.85</ele>
        <time>2024-12-29T15:14:07.280Z</time>
      </trkpt>
      <trkpt lat="49.78815296664834" lon="6.116822920739651">
        <ele>212.14</ele>
        <time>2024-12-29T15:14:15.963Z</time>
      </trkpt>
      <trkpt lat="49.78829168714583" lon="6.117065325379372">
        <ele>212.48</ele>
        <time>2024-12-29T15:14:24.674Z</time>
      </trkpt>
      <trkpt lat="49.78842998854816" lon="6.117306975647807">
        <ele>212.89</ele>
        <time>2024-12-29T15:14:33.413Z</time>
      </trkpt>
      <trkpt lat="49.78854155167937" lon="6.117555750533938">
        <ele>213.33</ele>
        <time>2024-12-29T15:14:42.178Z</time>
      </trkpt>
      <trkpt lat="49.78854297660291" lon="6.117558935657144">
        <ele>213.8</ele>
        <time>2024-12-29T15:14:50.943Z</time>
      </trkpt>
      <trkpt lat="49.788715643808246" lon="6.117805279791355">
        <ele>214.39</ele>
        <time>2024-12-29T15:14:59.739Z</time>
      </trkpt>
      <trkpt lat="49.78888797573745" lon="6.118050953373313">
        <ele>215.1</ele>
        <time>2024-12-29T15:15:08.567Z</time>
      </trkpt>
      <trkpt lat="49.78904899209738" lon="6.118234936147928">
        <ele>215.79</ele>
        <time>2024-12-29T15:15:17.422Z</time>
      </trkpt>
      <trkpt lat="49.78928695432842" lon="6.1184619180858135">
        <ele>216.46</ele>
        <time>2024-12-29T15:15:26.314Z</time>
      </trkpt>
      <trkpt lat="49.78948996402323" lon="6.118619916960597">
        <ele>217.07</ele>
        <time>2024-12-29T15:15:35.236Z</time>
      </trkpt>
      <trkpt lat="49.78957294486463" lon="6.1186689510941505">
        <ele>217.72</ele>
        <time>2024-12-29T15:15:44.170Z</time>
      </trkpt>
      <trkpt lat="49.78972398675978" lon="6.1187169793993235">
        <ele>218.4</ele>
        <time>2024-12-29T15:15:53.125Z</time>
      </trkpt>
      <trkpt lat="49.78995004668832" lon="6.118834996595979">
        <ele>219.08</ele>
        <time>2024-12-29T15:16:02.111Z</time>
      </trkpt>
      <trkpt lat="49.79017593897879" lon="6.118952929973602">
        <ele>219.75</ele>
        <time>2024-12-29T15:16:11.129Z</time>
      </trkpt>
      <trkpt lat="49.79044592007995" lon="6.119062984362245">
        <ele>220.42</ele>
        <time>2024-12-29T15:16:20.185Z</time>
      </trkpt>
      <trkpt lat="49.79069595225155" lon="6.119116963818669">
        <ele>221.06</ele>
        <time>2024-12-29T15:16:29.274Z</time>
      </trkpt>
      <trkpt lat="49.79089896194637" lon="6.119131464511156">
        <ele>221.76</ele>
        <time>2024-12-29T15:16:38.390Z</time>
      </trkpt>
      <trkpt lat="49.79110197164118" lon="6.119145965203643">
        <ele>222.56</ele>
        <time>2024-12-29T15:16:47.534Z</time>
      </trkpt>
      <trkpt lat="49.791259970515966" lon="6.119124926626682">
        <ele>223.22</ele>
        <time>2024-12-29T15:16:56.699Z</time>
      </trkpt>
      <trkpt lat="49.79151897132397" lon="6.119051920250058">
        <ele>223.75</ele>
        <time>2024-12-29T15:17:05.899Z</time>
      </trkpt>
      <trkpt lat="49.791711922734976" lon="6.118973968550563">
        <ele>224.33</ele>
        <time>2024-12-29T15:17:15.125Z</time>
      </trkpt>
      <trkpt lat="49.79186992160976" lon="6.118889981880784">
        <ele>224.98</ele>
        <time>2024-12-29T15:17:24.374Z</time>
      </trkpt>
      <trkpt lat="49.79206354357302" lon="6.118768444284797">
        <ele>225.44</ele>
        <time>2024-12-29T15:17:33.651Z</time>
      </trkpt>
      <trkpt lat="49.79225699789822" lon="6.118646990507841">
        <ele>225.67</ele>
        <time>2024-12-29T15:17:42.956Z</time>
      </trkpt>
      <trkpt lat="49.79239194653928" lon="6.118573984131217">
        <ele>225.81</ele>
        <time>2024-12-29T15:17:52.280Z</time>
      </trkpt>
      <trkpt lat="49.7924289945513" lon="6.118568954989314">
        <ele>225.75</ele>
        <time>2024-12-29T15:18:01.609Z</time>
      </trkpt>
      <trkpt lat="49.79246595874429" lon="6.118583958595991">
        <ele>225.55</ele>
        <time>2024-12-29T15:18:10.943Z</time>
      </trkpt>
      <trkpt lat="49.7925119753927" lon="6.118633998557925">
        <ele>225.19</ele>
        <time>2024-12-29T15:18:20.284Z</time>
      </trkpt>
      <trkpt lat="49.79253393597901" lon="6.118721924722195">
        <ele>224.72</ele>
        <time>2024-12-29T15:18:29.633Z</time>
      </trkpt>
      <trkpt lat="49.79257794097066" lon="6.118961982429028">
        <ele>223.99</ele>
        <time>2024-12-29T15:18:39.004Z</time>
      </trkpt>
      <trkpt lat="49.792609959840775" lon="6.119034988805652">
        <ele>223.39</ele>
        <time>2024-12-29T15:18:48.383Z</time>
      </trkpt>
      <trkpt lat="49.792655976489186" lon="6.119089974090457">
        <ele>222.76</ele>
        <time>2024-12-29T15:18:57.769Z</time>
      </trkpt>
      <trkpt lat="49.79271196760237" lon="6.119107995182276">
        <ele>222.14</ele>
        <time>2024-12-29T15:19:07.163Z</time>
      </trkpt>
      <trkpt lat="49.79279193095863" lon="6.119095925241709">
        <ele>221.52</ele>
        <time>2024-12-29T15:19:16.568Z</time>
      </trkpt>
      <trkpt lat="49.792976500466466" lon="6.1190094240009785">
        <ele>220.89</ele>
        <time>2024-12-29T15:19:25.998Z</time>
      </trkpt>
      <trkpt lat="49.79316098615527" lon="6.118922922760248">
        <ele>220.28</ele>
        <time>2024-12-29T15:19:35.454Z</time>
      </trkpt>
      <trkpt lat="49.793366929516196" lon="6.118812952190638">
        <ele>219.69</ele>
        <time>2024-12-29T15:19:44.939Z</time>
      </trkpt>
      <trkpt lat="49.79355996474624" lon="6.1187399458140135">
        <ele>219.14</ele>
        <time>2024-12-29T15:19:54.451Z</time>
      </trkpt>
      <trkpt lat="49.79369692504406" lon="6.118727959692478">
        <ele>218.59</ele>
        <time>2024-12-29T15:20:03.981Z</time>
      </trkpt>
      <trkpt lat="49.79394092224538" lon="6.1186889838427305">
        <ele>218.15</ele>
        <time>2024-12-29T15:20:13.544Z</time>
      </trkpt>
      <trkpt lat="49.794200928881764" lon="6.118734916672111">
        <ele>217.64</ele>
        <time>2024-12-29T15:20:23.142Z</time>
      </trkpt>
      <trkpt lat="49.7944909427315" lon="6.118778921663761">
        <ele>217.14</ele>
        <time>2024-12-29T15:20:32.779Z</time>
      </trkpt>
      <trkpt lat="49.794563949108124" lon="6.118812952190638">
        <ele>216.61</ele>
        <time>2024-12-29T15:20:42.426Z</time>
      </trkpt>
      <trkpt lat="49.79474793188274" lon="6.11894597299397">
        <ele>215.99</ele>
        <time>2024-12-29T15:20:52.100Z</time>
      </trkpt>
      <trkpt lat="49.79496208950877" lon="6.119129536673427">
        <ele>215.38</ele>
        <time>2024-12-29T15:21:01.807Z</time>
      </trkpt>
      <trkpt lat="49.79517599567771" lon="6.11931293271482">
        <ele>214.78</ele>
        <time>2024-12-29T15:21:11.546Z</time>
      </trkpt>
      <trkpt lat="49.7953369282186" lon="6.119431955739856">
        <ele>214.32</ele>
        <time>2024-12-29T15:21:21.309Z</time>
      </trkpt>
      <trkpt lat="49.79539493098855" lon="6.119471937417984">
        <ele>213.95</ele>
        <time>2024-12-29T15:21:31.081Z</time>
      </trkpt>
      <trkpt lat="49.79543793015182" lon="6.119506973773241">
        <ele>213.63</ele>
        <time>2024-12-29T15:21:40.859Z</time>
      </trkpt>
      <trkpt lat="49.795531975105405" lon="6.119575956836343">
        <ele>213.38</ele>
        <time>2024-12-29T15:21:50.651Z</time>
      </trkpt>
      <trkpt lat="49.79579919017851" lon="6.119825653731823">
        <ele>213.16</ele>
        <time>2024-12-29T15:22:00.485Z</time>
      </trkpt>
      <trkpt lat="49.796065986156464" lon="6.1200749315321445">
        <ele>212.94</ele>
        <time>2024-12-29T15:22:10.360Z</time>
      </trkpt>
      <trkpt lat="49.796110996976495" lon="6.120055988430977">
        <ele>212.83</ele>
        <time>2024-12-29T15:22:20.241Z</time>
      </trkpt>
      <trkpt lat="49.796133963391185" lon="6.120062945410609">
        <ele>212.74</ele>
        <time>2024-12-29T15:22:30.126Z</time>
      </trkpt>
      <trkpt lat="49.796154918149114" lon="6.120081972330809">
        <ele>212.69</ele>
        <time>2024-12-29T15:22:40.014Z</time>
      </trkpt>
      <trkpt lat="49.79617092758417" lon="6.120110973715782">
        <ele>212.69</ele>
        <time>2024-12-29T15:22:49.905Z</time>
      </trkpt>
      <trkpt lat="49.79618098586798" lon="6.120147937908769">
        <ele>212.73</ele>
        <time>2024-12-29T15:22:59.800Z</time>
      </trkpt>
      <trkpt lat="49.79618115350604" lon="6.120156906545162">
        <ele>212.85</ele>
        <time>2024-12-29T15:23:09.695Z</time>
      </trkpt>
      <trkpt lat="49.79618199169636" lon="6.120186997577548">
        <ele>213.01</ele>
        <time>2024-12-29T15:23:19.593Z</time>
      </trkpt>
      <trkpt lat="49.79627494700253" lon="6.120257992297411">
        <ele>213.33</ele>
        <time>2024-12-29T15:23:29.505Z</time>
      </trkpt>
      <trkpt lat="49.79630998335779" lon="6.120291939005256">
        <ele>213.66</ele>
        <time>2024-12-29T15:23:39.422Z</time>
      </trkpt>
      <trkpt lat="49.79630193673074" lon="6.120383972302079">
        <ele>213.99</ele>
        <time>2024-12-29T15:23:49.347Z</time>
      </trkpt>
      <trkpt lat="49.796347953379154" lon="6.120491931214929">
        <ele>214.42</ele>
        <time>2024-12-29T15:23:59.283Z</time>
      </trkpt>
      <trkpt lat="49.79652992449701" lon="6.120745986700058">
        <ele>214.94</ele>
        <time>2024-12-29T15:24:09.252Z</time>
      </trkpt>
      <trkpt lat="49.796628998592496" lon="6.120931981131434">
        <ele>215.5</ele>
        <time>2024-12-29T15:24:19.242Z</time>
      </trkpt>
      <trkpt lat="49.796760929748416" lon="6.121105989441276">
        <ele>216.13</ele>
        <time>2024-12-29T15:24:29.255Z</time>
      </trkpt>
      <trkpt lat="49.796929992735386" lon="6.121309921145439">
        <ele>216.74</ele>
        <time>2024-12-29T15:24:39.297Z</time>
      </trkpt>
      <trkpt lat="49.79702395386994" lon="6.121398936957121">
        <ele>217.43</ele>
        <time>2024-12-29T15:24:49.354Z</time>
      </trkpt>
      <trkpt lat="49.79726057499647" lon="6.12158359028399">
        <ele>218.23</ele>
        <time>2024-12-29T15:24:59.446Z</time>
      </trkpt>
      <trkpt lat="49.79749694466591" lon="6.121767992153764">
        <ele>219.04</ele>
        <time>2024-12-29T15:25:09.573Z</time>
      </trkpt>
      <trkpt lat="49.79760297574103" lon="6.121842926368117">
        <ele>219.87</ele>
        <time>2024-12-29T15:25:19.716Z</time>
      </trkpt>
      <trkpt lat="49.7978809196502" lon="6.122007966041565">
        <ele>220.81</ele>
        <time>2024-12-29T15:25:29.899Z</time>
      </trkpt>
      <trkpt lat="49.798129526898265" lon="6.122102430090308">
        <ele>221.87</ele>
        <time>2024-12-29T15:25:40.116Z</time>
      </trkpt>
      <trkpt lat="49.79837796650827" lon="6.122196977958083">
        <ele>222.82</ele>
        <time>2024-12-29T15:25:50.367Z</time>
      </trkpt>
      <trkpt lat="49.79842197149992" lon="6.122219944372773">
        <ele>223.59</ele>
        <time>2024-12-29T15:26:00.624Z</time>
      </trkpt>
      <trkpt lat="49.79848592542112" lon="6.12225498072803">
        <ele>224.32</ele>
        <time>2024-12-29T15:26:10.890Z</time>
      </trkpt>
      <trkpt lat="49.798624981194735" lon="6.122369980439544">
        <ele>225.05</ele>
        <time>2024-12-29T15:26:21.177Z</time>
      </trkpt>
      <trkpt lat="49.798779962584376" lon="6.12253493629396">
        <ele>225.71</ele>
        <time>2024-12-29T15:26:31.489Z</time>
      </trkpt>
      <trkpt lat="49.79900199919939" lon="6.122844982892275">
        <ele>226.28</ele>
        <time>2024-12-29T15:26:41.841Z</time>
      </trkpt>
      <trkpt lat="49.799103923141956" lon="6.123010944575071">
        <ele>226.41</ele>
        <time>2024-12-29T15:26:52.213Z</time>
      </trkpt>
      <trkpt lat="49.79921992868185" lon="6.123218983411789">
        <ele>226.32</ele>
        <time>2024-12-29T15:27:02.609Z</time>
      </trkpt>
      <trkpt lat="49.799400977790356" lon="6.123613938689232">
        <ele>225.93</ele>
        <time>2024-12-29T15:27:13.047Z</time>
      </trkpt>
      <trkpt lat="49.79954154230654" lon="6.123866988345981">
        <ele>225.79</ele>
        <time>2024-12-29T15:27:23.513Z</time>
      </trkpt>
      <trkpt lat="49.79968210682273" lon="6.124120121821761">
        <ele>225.58</ele>
        <time>2024-12-29T15:27:34.008Z</time>
      </trkpt>
      <trkpt lat="49.79982191696763" lon="6.124371998012066">
        <ele>225.3</ele>
        <time>2024-12-29T15:27:44.532Z</time>
      </trkpt>
      <trkpt lat="49.799915961921215" lon="6.124598979949951">
        <ele>224.89</ele>
        <time>2024-12-29T15:27:55.079Z</time>
      </trkpt>
      <trkpt lat="49.80003297328949" lon="6.124922940507531">
        <ele>224.39</ele>
        <time>2024-12-29T15:28:05.658Z</time>
      </trkpt>
      <trkpt lat="49.800152918323874" lon="6.1251769959926605">
        <ele>223.99</ele>
        <time>2024-12-29T15:28:16.264Z</time>
      </trkpt>
      <trkpt lat="49.80027671903372" lon="6.125492574647069">
        <ele>223.57</ele>
        <time>2024-12-29T15:28:26.902Z</time>
      </trkpt>
      <trkpt lat="49.80039993301034" lon="6.125806979835033">
        <ele>223.23</ele>
        <time>2024-12-29T15:28:37.572Z</time>
      </trkpt>
      <trkpt lat="49.800540916621685" lon="6.126140579581261">
        <ele>222.73</ele>
        <time>2024-12-29T15:28:48.276Z</time>
      </trkpt>
      <trkpt lat="49.80068131349981" lon="6.126473173499107">
        <ele>222.17</ele>
        <time>2024-12-29T15:28:59.015Z</time>
      </trkpt>
      <trkpt lat="49.800681816414" lon="6.12647426314652">
        <ele>221.65</ele>
        <time>2024-12-29T15:29:09.754Z</time>
      </trkpt>
      <trkpt lat="49.80082196183503" lon="6.1268059350550175">
        <ele>221.06</ele>
        <time>2024-12-29T15:29:20.527Z</time>
      </trkpt>
      <trkpt lat="49.800938135012984" lon="6.127033336088061">
        <ele>220.49</ele>
        <time>2024-12-29T15:29:31.325Z</time>
      </trkpt>
      <trkpt lat="49.801053972914815" lon="6.12725998274982">
        <ele>219.92</ele>
        <time>2024-12-29T15:29:42.148Z</time>
      </trkpt>
      <trkpt lat="49.80125991627574" lon="6.1275949236005545">
        <ele>219.38</ele>
        <time>2024-12-29T15:29:53.011Z</time>
      </trkpt>
      <trkpt lat="49.80140492320061" lon="6.127806985750794">
        <ele>218.88</ele>
        <time>2024-12-29T15:30:03.901Z</time>
      </trkpt>
      <trkpt lat="49.80160793289542" lon="6.127987951040268">
        <ele>218.36</ele>
        <time>2024-12-29T15:30:14.822Z</time>
      </trkpt>
      <trkpt lat="49.80170893482864" lon="6.1280949879437685">
        <ele>217.79</ele>
        <time>2024-12-29T15:30:25.759Z</time>
      </trkpt>
      <trkpt lat="49.80186492204666" lon="6.128356922417879">
        <ele>217.16</ele>
        <time>2024-12-29T15:30:36.727Z</time>
      </trkpt>
      <trkpt lat="49.801976988092065" lon="6.128598991781473">
        <ele>216.53</ele>
        <time>2024-12-29T15:30:47.721Z</time>
      </trkpt>
      <trkpt lat="49.80204597115517" lon="6.128766965121031">
        <ele>215.98</ele>
        <time>2024-12-29T15:30:58.732Z</time>
      </trkpt>
      <trkpt lat="49.802087964490056" lon="6.128907948732376">
        <ele>215.47</ele>
        <time>2024-12-29T15:31:09.756Z</time>
      </trkpt>
      <trkpt lat="49.802170945331454" lon="6.129118921235204">
        <ele>214.98</ele>
        <time>2024-12-29T15:31:20.802Z</time>
      </trkpt>
      <trkpt lat="49.802235988900065" lon="6.129305921494961">
        <ele>214.5</ele>
        <time>2024-12-29T15:31:31.866Z</time>
      </trkpt>
      <trkpt lat="49.8022619727999" lon="6.129305921494961">
        <ele>214.14</ele>
        <time>2024-12-29T15:31:42.933Z</time>
      </trkpt>
      <trkpt lat="49.802298936992884" lon="6.129267951473594">
        <ele>213.83</ele>
        <time>2024-12-29T15:31:54.006Z</time>
      </trkpt>
      <trkpt lat="49.80233891867101" lon="6.129219923168421">
        <ele>213.58</ele>
        <time>2024-12-29T15:32:05.086Z</time>
      </trkpt>
      <trkpt lat="49.802449978888035" lon="6.129099978134036">
        <ele>213.35</ele>
        <time>2024-12-29T15:32:16.184Z</time>
      </trkpt>
      <trkpt lat="49.802535977214575" lon="6.128981960937381">
        <ele>213.17</ele>
        <time>2024-12-29T15:32:27.297Z</time>
      </trkpt>
      <trkpt lat="49.802603954449296" lon="6.1288409773260355">
        <ele>213.06</ele>
        <time>2024-12-29T15:32:38.426Z</time>
      </trkpt>
      <trkpt lat="49.80267897248268" lon="6.128632938489318">
        <ele>213.07</ele>
        <time>2024-12-29T15:32:49.575Z</time>
      </trkpt>
      <trkpt lat="49.802773939445615" lon="6.128329932689667">
        <ele>213.1</ele>
        <time>2024-12-29T15:33:00.753Z</time>
      </trkpt>
      <trkpt lat="49.80285197496414" lon="6.127979988232255">
        <ele>213.13</ele>
        <time>2024-12-29T15:33:11.963Z</time>
      </trkpt>
      <trkpt lat="49.802901931107044" lon="6.127659967169166">
        <ele>213.1</ele>
        <time>2024-12-29T15:33:23.202Z</time>
      </trkpt>
      <trkpt lat="49.802922550588846" lon="6.127389231696725">
        <ele>213.15</ele>
        <time>2024-12-29T15:33:34.464Z</time>
      </trkpt>
      <trkpt lat="49.80294291861355" lon="6.127119921147823">
        <ele>213.22</ele>
        <time>2024-12-29T15:33:45.750Z</time>
      </trkpt>
      <trkpt lat="49.802944930270314" lon="6.1267629358917475">
        <ele>213.28</ele>
        <time>2024-12-29T15:33:57.067Z</time>
      </trkpt>
      <trkpt lat="49.8029319383204" lon="6.12659496255219">
        <ele>213.34</ele>
        <time>2024-12-29T15:34:08.398Z</time>
      </trkpt>
      <trkpt lat="49.80290595442057" lon="6.126469988375902">
        <ele>213.36</ele>
        <time>2024-12-29T15:34:19.741Z</time>
      </trkpt>
      <trkpt lat="49.802863877266645" lon="6.126172682270408">
        <ele>213.34</ele>
        <time>2024-12-29T15:34:31.110Z</time>
      </trkpt>
      <trkpt lat="49.80282196775079" lon="6.125876968726516">
        <ele>213.42</ele>
        <time>2024-12-29T15:34:42.505Z</time>
      </trkpt>
      <trkpt lat="49.80275893583894" lon="6.125698937103152">
        <ele>213.61</ele>
        <time>2024-12-29T15:34:53.917Z</time>
      </trkpt>
      <trkpt lat="49.80256497859955" lon="6.125512942671776">
        <ele>214.02</ele>
        <time>2024-12-29T15:35:05.360Z</time>
      </trkpt>
      <trkpt lat="49.80250999331474" lon="6.125396937131882">
        <ele>214.4</ele>
        <time>2024-12-29T15:35:16.815Z</time>
      </trkpt>
      <trkpt lat="49.80247696861625" lon="6.125263916328549">
        <ele>214.83</ele>
        <time>2024-12-29T15:35:28.283Z</time>
      </trkpt>
      <trkpt lat="49.80244595557451" lon="6.1251069232821465">
        <ele>215.35</ele>
        <time>2024-12-29T15:35:39.765Z</time>
      </trkpt>
      <trkpt lat="49.80234897695482" lon="6.1246969643980265">
        <ele>216.0</ele>
        <time>2024-12-29T15:35:51.285Z</time>
      </trkpt>
      <trkpt lat="49.80222995392978" lon="6.124279964715242">
        <ele>216.47</ele>
        <time>2024-12-29T15:36:02.844Z</time>
      </trkpt>
      <trkpt lat="49.80209366418421" lon="6.123863719403744">
        <ele>217.07</ele>
        <time>2024-12-29T15:36:14.443Z</time>
      </trkpt>
      <trkpt lat="49.80195737443864" lon="6.123447474092245">
        <ele>217.77</ele>
        <time>2024-12-29T15:36:26.083Z</time>
      </trkpt>
      <trkpt lat="49.80182192288339" lon="6.123033994808793">
        <ele>218.66</ele>
        <time>2024-12-29T15:36:37.763Z</time>
      </trkpt>
      <trkpt lat="49.80171396397054" lon="6.122609954327345">
        <ele>219.7</ele>
        <time>2024-12-29T15:36:49.482Z</time>
      </trkpt>
      <trkpt lat="49.801678927615285" lon="6.12242597155273">
        <ele>220.84</ele>
        <time>2024-12-29T15:37:01.217Z</time>
      </trkpt>
      <trkpt lat="49.801635928452015" lon="6.122307954356074">
        <ele>222.1</ele>
        <time>2024-12-29T15:37:12.964Z</time>
      </trkpt>
      <trkpt lat="49.80158697813749" lon="6.122232936322689">
        <ele>223.46</ele>
        <time>2024-12-29T15:37:24.720Z</time>
      </trkpt>
      <trkpt lat="49.801333928480744" lon="6.121955998241901">
        <ele>225.31</ele>
        <time>2024-12-29T15:37:36.518Z</time>
      </trkpt>
      <trkpt lat="49.80123594403267" lon="6.121795987710357">
        <ele>226.79</ele>
        <time>2024-12-29T15:37:48.335Z</time>
      </trkpt>
      <trkpt lat="49.80115296319127" lon="6.121603958308697">
        <ele>228.05</ele>
        <time>2024-12-29T15:38:00.172Z</time>
      </trkpt>
      <trkpt lat="49.80105799622834" lon="6.12130899913609">
        <ele>229.29</ele>
        <time>2024-12-29T15:38:12.037Z</time>
      </trkpt>
      <trkpt lat="49.8010169249028" lon="6.121275974437594">
        <ele>230.51</ele>
        <time>2024-12-29T15:38:23.908Z</time>
      </trkpt>
      <trkpt lat="49.800881976261735" lon="6.121277986094356">
        <ele>231.9</ele>
        <time>2024-12-29T15:38:35.797Z</time>
      </trkpt>
      <trkpt lat="49.80084995739162" lon="6.121269939467311">
        <ele>232.86</ele>
        <time>2024-12-29T15:38:47.691Z</time>
      </trkpt>
      <trkpt lat="49.80082296766341" lon="6.121243955567479">
        <ele>233.65</ele>
        <time>2024-12-29T15:38:59.589Z</time>
      </trkpt>
      <trkpt lat="49.80074794963002" lon="6.121054943650961">
        <ele>234.4</ele>
        <time>2024-12-29T15:39:11.506Z</time>
      </trkpt>
      <trkpt lat="49.80074493214488" lon="6.1210049875080585">
        <ele>234.8</ele>
        <time>2024-12-29T15:39:23.427Z</time>
      </trkpt>
      <trkpt lat="49.800754990428686" lon="6.120950924232602">
        <ele>235.01</ele>
        <time>2024-12-29T15:39:35.353Z</time>
      </trkpt>
      <trkpt lat="49.800796983763576" lon="6.120886970311403">
        <ele>234.98</ele>
        <time>2024-12-29T15:39:47.287Z</time>
      </trkpt>
      <trkpt lat="49.80100393295288" lon="6.120636938139796">
        <ele>234.4</ele>
        <time>2024-12-29T15:39:59.256Z</time>
      </trkpt>
      <trkpt lat="49.80104492045939" lon="6.120531996712089">
        <ele>234.14</ele>
        <time>2024-12-29T15:40:11.236Z</time>
      </trkpt>
      <trkpt lat="49.80106595903635" lon="6.120424959808588">
        <ele>233.86</ele>
        <time>2024-12-29T15:40:23.226Z</time>
      </trkpt>
      <trkpt lat="49.801054978743196" lon="6.120263943448663">
        <ele>233.6</ele>
        <time>2024-12-29T15:40:35.230Z</time>
      </trkpt>
      <trkpt lat="49.801055984571576" lon="6.12013092264533">
        <ele>233.22</ele>
        <time>2024-12-29T15:40:47.245Z</time>
      </trkpt>
      <trkpt lat="49.8010840639472" lon="6.11980402842164">
        <ele>232.68</ele>
        <time>2024-12-29T15:40:59.288Z</time>
      </trkpt>
      <trkpt lat="49.80111197568476" lon="6.119478978216648">
        <ele>232.14</ele>
        <time>2024-12-29T15:41:11.360Z</time>
      </trkpt>
      <trkpt lat="49.80110099539161" lon="6.119347969070077">
        <ele>231.63</ele>
        <time>2024-12-29T15:41:23.443Z</time>
      </trkpt>
      <trkpt lat="49.80109194293618" lon="6.119017554447055">
        <ele>231.06</ele>
        <time>2024-12-29T15:41:35.555Z</time>
      </trkpt>
      <trkpt lat="49.80108297429979" lon="6.1186889838427305">
        <ele>230.29</ele>
        <time>2024-12-29T15:41:47.695Z</time>
      </trkpt>
      <trkpt lat="49.80105095542967" lon="6.118532996624708">
        <ele>229.73</ele>
        <time>2024-12-29T15:41:59.849Z</time>
      </trkpt>
      <trkpt lat="49.80095397680998" lon="6.118233930319548">
        <ele>229.12</ele>
        <time>2024-12-29T15:42:12.032Z</time>
      </trkpt>
      <trkpt lat="49.80094492435455" lon="6.118149943649769">
        <ele>228.76</ele>
        <time>2024-12-29T15:42:24.223Z</time>
      </trkpt>
      <trkpt lat="49.80094098486006" lon="6.118062939494848">
        <ele>228.53</ele>
        <time>2024-12-29T15:42:36.421Z</time>
      </trkpt>
      <trkpt lat="49.80095699429512" lon="6.117938971146941">
        <ele>228.41</ele>
        <time>2024-12-29T15:42:48.630Z</time>
      </trkpt>
      <trkpt lat="49.800989935174584" lon="6.117809973657131">
        <ele>228.57</ele>
        <time>2024-12-29T15:43:00.851Z</time>
      </trkpt>
      <trkpt lat="49.801028994843364" lon="6.117683993652463">
        <ele>228.89</ele>
        <time>2024-12-29T15:43:13.084Z</time>
      </trkpt>
      <trkpt lat="49.80107274837792" lon="6.117607299238443">
        <ele>229.38</ele>
        <time>2024-12-29T15:43:25.326Z</time>
      </trkpt>
      <trkpt lat="49.80108096264303" lon="6.11759296618402">
        <ele>230.0</ele>
        <time>2024-12-29T15:43:37.570Z</time>
      </trkpt>
      <trkpt lat="49.80120291933417" lon="6.117426920682192">
        <ele>230.88</ele>
        <time>2024-12-29T15:43:49.835Z</time>
      </trkpt>
      <trkpt lat="49.801309956237674" lon="6.117116957902908">
        <ele>232.06</ele>
        <time>2024-12-29T15:44:02.131Z</time>
      </trkpt>
      <trkpt lat="49.80136695317924" lon="6.116734994575381">
        <ele>233.38</ele>
        <time>2024-12-29T15:44:14.461Z</time>
      </trkpt>
      <trkpt lat="49.801438953727484" lon="6.116425953805447">
        <ele>234.58</ele>
        <time>2024-12-29T15:44:26.819Z</time>
      </trkpt>
      <trkpt lat="49.801522605121136" lon="6.116165863350034">
        <ele>235.47</ele>
        <time>2024-12-29T15:44:39.202Z</time>
      </trkpt>
      <trkpt lat="49.80160592123866" lon="6.115906946361065">
        <ele>236.2</ele>
        <time>2024-12-29T15:44:51.610Z</time>
      </trkpt>
      <trkpt lat="49.80170214548707" lon="6.115643419325352">
        <ele>236.74</ele>
        <time>2024-12-29T15:45:04.044Z</time>
      </trkpt>
      <trkpt lat="49.80179795064032" lon="6.115380981937051">
        <ele>237.21</ele>
        <time>2024-12-29T15:45:16.504Z</time>
      </trkpt>
      <trkpt lat="49.80194295756519" lon="6.115068923681974">
        <ele>237.61</ele>
        <time>2024-12-29T15:45:28.997Z</time>
      </trkpt>
      <trkpt lat="49.80208050459623" lon="6.114794835448265">
        <ele>237.77</ele>
        <time>2024-12-29T15:45:41.520Z</time>
      </trkpt>
      <trkpt lat="49.80221813544631" lon="6.114520663395524">
        <ele>237.75</ele>
        <time>2024-12-29T15:45:54.073Z</time>
      </trkpt>
      <trkpt lat="49.80235492810607" lon="6.114247916266322">
        <ele>237.73</ele>
        <time>2024-12-29T15:46:06.656Z</time>
      </trkpt>
      <trkpt lat="49.80255123227835" lon="6.113935522735119">
        <ele>237.35</ele>
        <time>2024-12-29T15:46:19.277Z</time>
      </trkpt>
      <trkpt lat="49.8027469497174" lon="6.113623967394233">
        <ele>237.0</ele>
        <time>2024-12-29T15:46:31.935Z</time>
      </trkpt>
      <trkpt lat="49.802936129271984" lon="6.113397236913443">
        <ele>236.27</ele>
        <time>2024-12-29T15:46:44.625Z</time>
      </trkpt>
      <trkpt lat="49.80312497355044" lon="6.113170925527811">
        <ele>235.15</ele>
        <time>2024-12-29T15:46:57.347Z</time>
      </trkpt>
      <trkpt lat="49.80322698131204" lon="6.11301694996655">
        <ele>234.37</ele>
        <time>2024-12-29T15:47:10.088Z</time>
      </trkpt>
      <trkpt lat="49.803286995738745" lon="6.1129119247198105">
        <ele>233.5</ele>
        <time>2024-12-29T15:47:22.841Z</time>
      </trkpt>
      <trkpt lat="49.80332789942622" lon="6.112875128164887">
        <ele>232.53</ele>
        <time>2024-12-29T15:47:35.600Z</time>
      </trkpt>
      <trkpt lat="49.803366959095" lon="6.112839924171567">
        <ele>231.48</ele>
        <time>2024-12-29T15:47:48.366Z</time>
      </trkpt>
      <trkpt lat="49.80351598933339" lon="6.11275845207274">
        <ele>230.26</ele>
        <time>2024-12-29T15:48:01.153Z</time>
      </trkpt>
      <trkpt lat="49.80366493575275" lon="6.112676979973912">
        <ele>228.77</ele>
        <time>2024-12-29T15:48:13.961Z</time>
      </trkpt>
      <trkpt lat="49.803884960711" lon="6.112487968057394">
        <ele>227.71</ele>
        <time>2024-12-29T15:48:26.802Z</time>
      </trkpt>
      <trkpt lat="49.80404597707093" lon="6.112272972241044">
        <ele>226.75</ele>
        <time>2024-12-29T15:48:39.672Z</time>
      </trkpt>
      <trkpt lat="49.804309168830514" lon="6.112020760774612">
        <ele>225.89</ele>
        <time>2024-12-29T15:48:52.583Z</time>
      </trkpt>
      <trkpt lat="49.80457194149494" lon="6.111768968403339">
        <ele>224.93</ele>
        <time>2024-12-29T15:49:05.535Z</time>
      </trkpt>
      <trkpt lat="49.80484292842448" lon="6.111585991457105">
        <ele>223.94</ele>
        <time>2024-12-29T15:49:18.527Z</time>
      </trkpt>
      <trkpt lat="49.8050869256258" lon="6.111447941511869">
        <ele>223.09</ele>
        <time>2024-12-29T15:49:31.553Z</time>
      </trkpt>
      <trkpt lat="49.8053340241313" lon="6.11132338643074">
        <ele>221.8</ele>
        <time>2024-12-29T15:49:44.614Z</time>
      </trkpt>
      <trkpt lat="49.805581122636795" lon="6.111198915168643">
        <ele>220.07</ele>
        <time>2024-12-29T15:49:57.710Z</time>
      </trkpt>
      <trkpt lat="49.80582813732326" lon="6.111074360087514">
        <ele>218.75</ele>
        <time>2024-12-29T15:50:10.841Z</time>
      </trkpt>
      <trkpt lat="49.80607498437166" lon="6.110949972644448">
        <ele>217.8</ele>
        <time>2024-12-29T15:50:24.006Z</time>
      </trkpt>
      <trkpt lat="49.80630833655596" lon="6.110859951004386">
        <ele>216.83</ele>
        <time>2024-12-29T15:50:37.203Z</time>
      </trkpt>
      <trkpt lat="49.80654168874025" lon="6.110769929364324">
        <ele>215.85</ele>
        <time>2024-12-29T15:50:50.432Z</time>
      </trkpt>
      <trkpt lat="49.80677495710552" lon="6.110679991543293">
        <ele>214.9</ele>
        <time>2024-12-29T15:51:03.693Z</time>
      </trkpt>
      <trkpt lat="49.80700051411986" lon="6.110614445060492">
        <ele>214.26</ele>
        <time>2024-12-29T15:51:16.985Z</time>
      </trkpt>
      <trkpt lat="49.80722598731518" lon="6.110548982396722">
        <ele>213.84</ele>
        <time>2024-12-29T15:51:30.308Z</time>
      </trkpt>
      <trkpt lat="49.80744048021734" lon="6.110538421198726">
        <ele>213.47</ele>
        <time>2024-12-29T15:51:43.659Z</time>
      </trkpt>
      <trkpt lat="49.8076549731195" lon="6.110527943819761">
        <ele>213.2</ele>
        <time>2024-12-29T15:51:57.039Z</time>
      </trkpt>
      <trkpt lat="49.807928977534175" lon="6.110405400395393">
        <ele>213.04</ele>
        <time>2024-12-29T15:52:10.457Z</time>
      </trkpt>
      <trkpt lat="49.80820298194885" lon="6.110282940790057">
        <ele>213.12</ele>
        <time>2024-12-29T15:52:23.913Z</time>
      </trkpt>
      <trkpt lat="49.808442955836654" lon="6.110195936635137">
        <ele>213.12</ele>
        <time>2024-12-29T15:52:37.402Z</time>
      </trkpt>
      <trkpt lat="49.808682929724455" lon="6.110108932480216">
        <ele>213.26</ele>
        <time>2024-12-29T15:52:50.924Z</time>
      </trkpt>
      <trkpt lat="49.808875964954495" lon="6.110005918890238">
        <ele>213.5</ele>
        <time>2024-12-29T15:53:04.473Z</time>
      </trkpt>
      <trkpt lat="49.80907956138253" lon="6.109836352989078">
        <ele>213.92</ele>
        <time>2024-12-29T15:53:18.053Z</time>
      </trkpt>
      <trkpt lat="49.809282990172505" lon="6.109666954725981">
        <ele>214.46</ele>
        <time>2024-12-29T15:53:31.664Z</time>
      </trkpt>
      <trkpt lat="49.809517934918404" lon="6.109414994716644">
        <ele>214.71</ele>
        <time>2024-12-29T15:53:45.313Z</time>
      </trkpt>
      <trkpt lat="49.80963997542858" lon="6.10925892367959">
        <ele>215.09</ele>
        <time>2024-12-29T15:53:58.983Z</time>
      </trkpt>
      <trkpt lat="49.80983686633408" lon="6.108965892344713">
        <ele>215.45</ele>
        <time>2024-12-29T15:54:12.690Z</time>
      </trkpt>
      <trkpt lat="49.81003384105861" lon="6.108672861009836">
        <ele>215.92</ele>
        <time>2024-12-29T15:54:26.433Z</time>
      </trkpt>
      <trkpt lat="49.810229977592826" lon="6.1083809193223715">
        <ele>216.18</ele>
        <time>2024-12-29T15:54:40.213Z</time>
      </trkpt>
      <trkpt lat="49.81041496619582" lon="6.10815997235477">
        <ele>216.38</ele>
        <time>2024-12-29T15:54:54.024Z</time>
      </trkpt>
      <trkpt lat="49.81059811078012" lon="6.107953106984496">
        <ele>216.59</ele>
        <time>2024-12-29T15:55:07.865Z</time>
      </trkpt>
      <trkpt lat="49.81078133918345" lon="6.1077462416142225">
        <ele>217.06</ele>
        <time>2024-12-29T15:55:21.736Z</time>
      </trkpt>
      <trkpt lat="49.81096398085356" lon="6.107539962977171">
        <ele>217.45</ele>
        <time>2024-12-29T15:55:35.638Z</time>
      </trkpt>
      <trkpt lat="49.81118786148727" lon="6.107309041544795">
        <ele>217.75</ele>
        <time>2024-12-29T15:55:49.575Z</time>
      </trkpt>
      <trkpt lat="49.81141182594001" lon="6.107078036293387">
        <ele>218.18</ele>
        <time>2024-12-29T15:56:03.548Z</time>
      </trkpt>
      <trkpt lat="49.81163579039276" lon="6.1068471148610115">
        <ele>218.56</ele>
        <time>2024-12-29T15:56:17.557Z</time>
      </trkpt>
      <trkpt lat="49.81185891665518" lon="6.106616947799921">
        <ele>218.89</ele>
        <time>2024-12-29T15:56:31.602Z</time>
      </trkpt>
      <trkpt lat="49.8120859824121" lon="6.106339925900102">
        <ele>219.23</ele>
        <time>2024-12-29T15:56:45.686Z</time>
      </trkpt>
      <trkpt lat="49.812244987115264" lon="6.106104981154203">
        <ele>219.64</ele>
        <time>2024-12-29T15:56:59.799Z</time>
      </trkpt>
      <trkpt lat="49.81234196573496" lon="6.10590691678226">
        <ele>220.11</ele>
        <time>2024-12-29T15:57:13.934Z</time>
      </trkpt>
      <trkpt lat="49.81248797848821" lon="6.105486983433366">
        <ele>220.59</ele>
        <time>2024-12-29T15:57:28.110Z</time>
      </trkpt>
      <trkpt lat="49.812526954337955" lon="6.105339964851737">
        <ele>220.97</ele>
        <time>2024-12-29T15:57:42.299Z</time>
      </trkpt>
      <trkpt lat="49.81257498264313" lon="6.105162939056754">
        <ele>221.37</ele>
        <time>2024-12-29T15:57:56.505Z</time>
      </trkpt>
      <trkpt lat="49.81264798901975" lon="6.104853982105851">
        <ele>221.65</ele>
        <time>2024-12-29T15:58:10.739Z</time>
      </trkpt>
      <trkpt lat="49.81270506978035" lon="6.104548210278153">
        <ele>221.88</ele>
        <time>2024-12-29T15:58:25.001Z</time>
      </trkpt>
      <trkpt lat="49.812761982902884" lon="6.1042439471930265">
        <ele>222.04</ele>
        <time>2024-12-29T15:58:39.290Z</time>
      </trkpt>
      <trkpt lat="49.81276893988252" lon="6.104159960523248">
        <ele>222.09</ele>
        <time>2024-12-29T15:58:53.587Z</time>
      </trkpt>
      <trkpt lat="49.81281797401607" lon="6.103925937786698">
        <ele>222.04</ele>
        <time>2024-12-29T15:59:07.905Z</time>
      </trkpt>
      <trkpt lat="49.81286097317934" lon="6.103654615581036">
        <ele>221.93</ele>
        <time>2024-12-29T15:59:22.247Z</time>
      </trkpt>
      <trkpt lat="49.81286097317934" lon="6.1036549508571625">
        <ele>221.74</ele>
        <time>2024-12-29T15:59:36.589Z</time>
      </trkpt>
      <trkpt lat="49.8129115998745" lon="6.103288996964693">
        <ele>221.43</ele>
        <time>2024-12-29T15:59:50.963Z</time>
      </trkpt>
      <trkpt lat="49.81296197511256" lon="6.102924970909953">
        <ele>220.93</ele>
        <time>2024-12-29T16:00:05.369Z</time>
      </trkpt>
      <trkpt lat="49.812981924042106" lon="6.10268097370863">
        <ele>220.42</ele>
        <time>2024-12-29T16:00:19.797Z</time>
      </trkpt>
      <trkpt lat="49.81298896484077" lon="6.102325497195125">
        <ele>219.89</ele>
        <time>2024-12-29T16:00:34.255Z</time>
      </trkpt>
      <trkpt lat="49.8129959218204" lon="6.101971948519349">
        <ele>219.29</ele>
        <time>2024-12-29T16:00:48.744Z</time>
      </trkpt>
      <trkpt lat="49.81299097649753" lon="6.101849991828203">
        <ele>218.69</ele>
        <time>2024-12-29T16:01:03.244Z</time>
      </trkpt>
      <trkpt lat="49.8129649925977" lon="6.101554948836565">
        <ele>218.13</ele>
        <time>2024-12-29T16:01:17.769Z</time>
      </trkpt>
      <trkpt lat="49.812914952635765" lon="6.101225959137082">
        <ele>217.48</ele>
        <time>2024-12-29T16:01:32.323Z</time>
      </trkpt>
      <trkpt lat="49.81284496374428" lon="6.100929994136095">
        <ele>216.65</ele>
        <time>2024-12-29T16:01:46.905Z</time>
      </trkpt>
      <trkpt lat="49.81275192461908" lon="6.100621959194541">
        <ele>215.73</ele>
        <time>2024-12-29T16:02:01.516Z</time>
      </trkpt>
      <trkpt lat="49.8129840195179" lon="6.100482400506735">
        <ele>214.69</ele>
        <time>2024-12-29T16:02:16.160Z</time>
      </trkpt>
      <trkpt lat="49.813215946778655" lon="6.10034292563796">
        <ele>213.69</ele>
        <time>2024-12-29T16:02:30.837Z</time>
      </trkpt>
      <trkpt lat="49.813342932611704" lon="6.100230943411589">
        <ele>212.8</ele>
        <time>2024-12-29T16:02:45.534Z</time>
      </trkpt>
      <trkpt lat="49.813468996435404" lon="6.1000999342650175">
        <ele>211.93</ele>
        <time>2024-12-29T16:03:00.251Z</time>
      </trkpt>
      <trkpt lat="49.81357594951987" lon="6.099980995059013">
        <ele>211.07</ele>
        <time>2024-12-29T16:03:14.986Z</time>
      </trkpt>
      <trkpt lat="49.81369597837329" lon="6.099819978699088">
        <ele>210.25</ele>
        <time>2024-12-29T16:03:29.742Z</time>
      </trkpt>
      <trkpt lat="49.81377795338631" lon="6.099661979824305">
        <ele>209.51</ele>
        <time>2024-12-29T16:03:44.516Z</time>
      </trkpt>
      <trkpt lat="49.8139267321676" lon="6.099376492202282">
        <ele>208.78</ele>
        <time>2024-12-29T16:03:59.321Z</time>
      </trkpt>
      <trkpt lat="49.814074924215674" lon="6.099091926589608">
        <ele>208.15</ele>
        <time>2024-12-29T16:04:14.158Z</time>
      </trkpt>
      <trkpt lat="49.81412462890148" lon="6.0989439859986305">
        <ele>207.58</ele>
        <time>2024-12-29T16:04:29.009Z</time>
      </trkpt>
      <trkpt lat="49.8141479305923" lon="6.098874919116497">
        <ele>207.06</ele>
        <time>2024-12-29T16:04:43.867Z</time>
      </trkpt>
      <trkpt lat="49.81400191783905" lon="6.098777437582612">
        <ele>206.58</ele>
        <time>2024-12-29T16:04:58.746Z</time>
      </trkpt>
      <trkpt lat="49.813855988904834" lon="6.098679956048727">
        <ele>206.12</ele>
        <time>2024-12-29T16:05:13.646Z</time>
      </trkpt>
      <trkpt lat="49.813622971996665" lon="6.098527992144227">
        <ele>205.72</ele>
        <time>2024-12-29T16:05:28.580Z</time>
      </trkpt>
      <trkpt lat="49.81345793232322" lon="6.098425984382629">
        <ele>205.44</ele>
        <time>2024-12-29T16:05:43.538Z</time>
      </trkpt>
      <trkpt lat="49.81347695924342" lon="6.098102945834398">
        <ele>205.12</ele>
        <time>2024-12-29T16:05:58.524Z</time>
      </trkpt>
      <trkpt lat="49.81353395618498" lon="6.097928937524557">
        <ele>204.82</ele>
        <time>2024-12-29T16:06:13.527Z</time>
      </trkpt>
      <trkpt lat="49.81369195505977" lon="6.097922986373305">
        <ele>204.58</ele>
        <time>2024-12-29T16:06:28.551Z</time>
      </trkpt>
      <trkpt lat="49.81384995393455" lon="6.097916951403022">
        <ele>204.4</ele>
        <time>2024-12-29T16:06:43.596Z</time>
      </trkpt>
      <trkpt lat="49.81407995335758" lon="6.097871605306864">
        <ele>204.24</ele>
        <time>2024-12-29T16:06:58.672Z</time>
      </trkpt>
      <trkpt lat="49.814309952780604" lon="6.097826259210706">
        <ele>204.16</ele>
        <time>2024-12-29T16:07:13.779Z</time>
      </trkpt>
      <trkpt lat="49.81453995220363" lon="6.0977809969335794">
        <ele>204.22</ele>
        <time>2024-12-29T16:07:28.917Z</time>
      </trkpt>
      <trkpt lat="49.814577922225" lon="6.097744954749942">
        <ele>204.28</ele>
        <time>2024-12-29T16:07:44.061Z</time>
      </trkpt>
      <trkpt lat="49.81460499577224" lon="6.0976899694651365">
        <ele>204.39</ele>
        <time>2024-12-29T16:07:59.211Z</time>
      </trkpt>
      <trkpt lat="49.81464992277324" lon="6.097724922001362">
        <ele>204.56</ele>
        <time>2024-12-29T16:08:14.367Z</time>
      </trkpt>
      <trkpt lat="49.81471295468509" lon="6.097720982506871">
        <ele>204.77</ele>
        <time>2024-12-29T16:08:29.532Z</time>
      </trkpt>
      <trkpt lat="49.81488243676722" lon="6.097695417702198">
        <ele>205.03</ele>
        <time>2024-12-29T16:08:44.719Z</time>
      </trkpt>
      <trkpt lat="49.81505191884935" lon="6.0976699367165565">
        <ele>205.31</ele>
        <time>2024-12-29T16:08:59.929Z</time>
      </trkpt>
      <trkpt lat="49.815146969631314" lon="6.097653927281499">
        <ele>205.59</ele>
        <time>2024-12-29T16:09:15.152Z</time>
      </trkpt>
      <trkpt lat="49.81543899513781" lon="6.097602462396026">
        <ele>205.9</ele>
        <time>2024-12-29T16:09:30.414Z</time>
      </trkpt>
      <trkpt lat="49.815730936825275" lon="6.097550997510552">
        <ele>206.26</ele>
        <time>2024-12-29T16:09:45.715Z</time>
      </trkpt>
      <trkpt lat="49.81602296233177" lon="6.097499448806047">
        <ele>206.53</ele>
        <time>2024-12-29T16:10:01.056Z</time>
      </trkpt>
      <trkpt lat="49.81631498783827" lon="6.097447983920574">
        <ele>206.82</ele>
        <time>2024-12-29T16:10:16.436Z</time>
      </trkpt>
      <trkpt lat="49.816499976441264" lon="6.097509926185012">
        <ele>207.15</ele>
        <time>2024-12-29T16:10:31.841Z</time>
      </trkpt>
      <trkpt lat="49.81653492897749" lon="6.097499951720238">
        <ele>207.41</ele>
        <time>2024-12-29T16:10:47.251Z</time>
      </trkpt>
      <trkpt lat="49.81655093841255" lon="6.097451923415065">
        <ele>207.62</ele>
        <time>2024-12-29T16:11:02.666Z</time>
      </trkpt>
      <trkpt lat="49.81655295006931" lon="6.0973309725522995">
        <ele>207.78</ele>
        <time>2024-12-29T16:11:18.091Z</time>
      </trkpt>
      <trkpt lat="49.81655295006931" lon="6.097247991710901">
        <ele>207.94</ele>
        <time>2024-12-29T16:11:33.523Z</time>
      </trkpt>
      <trkpt lat="49.81655999086797" lon="6.097140954807401">
        <ele>208.05</ele>
        <time>2024-12-29T16:11:48.964Z</time>
      </trkpt>
      <trkpt lat="49.81683592312038" lon="6.097121927887201">
        <ele>208.16</ele>
        <time>2024-12-29T16:12:04.442Z</time>
      </trkpt>
      <trkpt lat="49.81695896945894" lon="6.097092926502228">
        <ele>208.32</ele>
        <time>2024-12-29T16:12:19.937Z</time>
      </trkpt>
      <trkpt lat="49.81721252202988" lon="6.097006676718593">
        <ele>208.48</ele>
        <time>2024-12-29T16:12:35.467Z</time>
      </trkpt>
      <trkpt lat="49.817465990781784" lon="6.0969204269349575">
        <ele>208.68</ele>
        <time>2024-12-29T16:12:51.031Z</time>
      </trkpt>
      <trkpt lat="49.81771954335272" lon="6.096834177151322">
        <ele>208.74</ele>
        <time>2024-12-29T16:13:06.630Z</time>
      </trkpt>
      <trkpt lat="49.8179729282856" lon="6.096747927367687">
        <ele>208.79</ele>
        <time>2024-12-29T16:13:22.264Z</time>
      </trkpt>
      <trkpt lat="49.8182475194335" lon="6.096660755574703">
        <ele>208.84</ele>
        <time>2024-12-29T16:13:37.935Z</time>
      </trkpt>
      <trkpt lat="49.818522026762366" lon="6.096573583781719">
        <ele>208.95</ele>
        <time>2024-12-29T16:13:53.643Z</time>
      </trkpt>
      <trkpt lat="49.818796534091234" lon="6.096486411988735">
        <ele>209.06</ele>
        <time>2024-12-29T16:14:09.389Z</time>
      </trkpt>
      <trkpt lat="49.8190710414201" lon="6.096399240195751">
        <ele>209.04</ele>
        <time>2024-12-29T16:14:25.172Z</time>
      </trkpt>
      <trkpt lat="49.819345632568" lon="6.096312068402767">
        <ele>208.87</ele>
        <time>2024-12-29T16:14:40.993Z</time>
      </trkpt>
      <trkpt lat="49.819619972258806" lon="6.096224980428815">
        <ele>208.75</ele>
        <time>2024-12-29T16:14:56.851Z</time>
      </trkpt>
      <trkpt lat="49.8198430147022" lon="6.09614560380578">
        <ele>208.65</ele>
        <time>2024-12-29T16:15:12.739Z</time>
      </trkpt>
      <trkpt lat="49.820066057145596" lon="6.096066311001778">
        <ele>208.56</ele>
        <time>2024-12-29T16:15:28.658Z</time>
      </trkpt>
      <trkpt lat="49.82028893195093" lon="6.095986934378743">
        <ele>208.27</ele>
        <time>2024-12-29T16:15:44.608Z</time>
      </trkpt>
      <trkpt lat="49.820534689351916" lon="6.095906971022487">
        <ele>208.05</ele>
        <time>2024-12-29T16:16:00.591Z</time>
      </trkpt>
      <trkpt lat="49.820780362933874" lon="6.0958269238471985">
        <ele>207.85</ele>
        <time>2024-12-29T16:16:16.608Z</time>
      </trkpt>
      <trkpt lat="49.8210259526968" lon="6.095746960490942">
        <ele>207.7</ele>
        <time>2024-12-29T16:16:32.658Z</time>
      </trkpt>
      <trkpt lat="49.821299789473414" lon="6.095642941072583">
        <ele>207.57</ele>
        <time>2024-12-29T16:16:48.746Z</time>
      </trkpt>
      <trkpt lat="49.821573542431" lon="6.095538921654224">
        <ele>207.41</ele>
        <time>2024-12-29T16:17:04.871Z</time>
      </trkpt>
      <trkpt lat="49.82184729538858" lon="6.095434902235866">
        <ele>207.18</ele>
        <time>2024-12-29T16:17:21.034Z</time>
      </trkpt>
      <trkpt lat="49.82212096452713" lon="6.0953309666365385">
        <ele>206.88</ele>
        <time>2024-12-29T16:17:37.235Z</time>
      </trkpt>
      <trkpt lat="49.822322968393564" lon="6.095265923067927">
        <ele>206.71</ele>
        <time>2024-12-29T16:17:53.463Z</time>
      </trkpt>
      <trkpt lat="49.82252497226" lon="6.095200963318348">
        <ele>206.56</ele>
        <time>2024-12-29T16:18:09.719Z</time>
      </trkpt>
      <trkpt lat="49.82277751900256" lon="6.095130974426866">
        <ele>206.58</ele>
        <time>2024-12-29T16:18:26.009Z</time>
      </trkpt>
      <trkpt lat="49.823029981926084" lon="6.095060985535383">
        <ele>206.51</ele>
        <time>2024-12-29T16:18:42.333Z</time>
      </trkpt>
      <trkpt lat="49.82317892834544" lon="6.095008933916688">
        <ele>206.27</ele>
        <time>2024-12-29T16:18:58.678Z</time>
      </trkpt>
      <trkpt lat="49.82327993027866" lon="6.095002982765436">
        <ele>206.03</ele>
        <time>2024-12-29T16:19:15.036Z</time>
      </trkpt>
      <trkpt lat="49.82349593192339" lon="6.094990326091647">
        <ele>205.77</ele>
        <time>2024-12-29T16:19:31.423Z</time>
      </trkpt>
      <trkpt lat="49.82371193356812" lon="6.094977585598826">
        <ele>205.51</ele>
        <time>2024-12-29T16:19:47.839Z</time>
      </trkpt>
      <trkpt lat="49.82392793521285" lon="6.094964928925037">
        <ele>205.28</ele>
        <time>2024-12-29T16:20:04.284Z</time>
      </trkpt>
      <trkpt lat="49.82422599568963" lon="6.094954954460263">
        <ele>205.07</ele>
        <time>2024-12-29T16:20:20.768Z</time>
      </trkpt>
      <trkpt lat="49.824526654556394" lon="6.0949645936489105">
        <ele>204.82</ele>
        <time>2024-12-29T16:20:37.293Z</time>
      </trkpt>
      <trkpt lat="49.82482731342316" lon="6.0949743166565895">
        <ele>204.58</ele>
        <time>2024-12-29T16:20:53.858Z</time>
      </trkpt>
      <trkpt lat="49.82512797228992" lon="6.094983955845237">
        <ele>204.45</ele>
        <time>2024-12-29T16:21:10.463Z</time>
      </trkpt>
      <trkpt lat="49.82540742494166" lon="6.09499292448163">
        <ele>204.29</ele>
        <time>2024-12-29T16:21:27.105Z</time>
      </trkpt>
      <trkpt lat="49.82568696141243" lon="6.095001976937056">
        <ele>204.09</ele>
        <time>2024-12-29T16:21:43.784Z</time>
      </trkpt>
      <trkpt lat="49.82599147595465" lon="6.095003988593817">
        <ele>203.85</ele>
        <time>2024-12-29T16:22:00.504Z</time>
      </trkpt>
      <trkpt lat="49.826295990496874" lon="6.095005916431546">
        <ele>203.72</ele>
        <time>2024-12-29T16:22:17.265Z</time>
      </trkpt>
      <trkpt lat="49.826515931636095" lon="6.095010945573449">
        <ele>203.59</ele>
        <time>2024-12-29T16:22:34.055Z</time>
      </trkpt>
      <trkpt lat="49.82673595659435" lon="6.095015974715352">
        <ele>203.43</ele>
        <time>2024-12-29T16:22:50.874Z</time>
      </trkpt>
      <trkpt lat="49.8269766010344" lon="6.095020920038223">
        <ele>203.31</ele>
        <time>2024-12-29T16:23:07.726Z</time>
      </trkpt>
      <trkpt lat="49.82721732929349" lon="6.095025949180126">
        <ele>203.29</ele>
        <time>2024-12-29T16:23:24.610Z</time>
      </trkpt>
      <trkpt lat="49.827457973733544" lon="6.095030978322029">
        <ele>203.32</ele>
        <time>2024-12-29T16:23:41.526Z</time>
      </trkpt>
      <trkpt lat="49.82755796983838" lon="6.09503298997879">
        <ele>203.32</ele>
        <time>2024-12-29T16:23:58.455Z</time>
      </trkpt>
      <trkpt lat="49.827611949294806" lon="6.095016980543733">
        <ele>203.3</ele>
        <time>2024-12-29T16:24:15.391Z</time>
      </trkpt>
      <trkpt lat="49.8278299625963" lon="6.095021422952414">
        <ele>203.36</ele>
        <time>2024-12-29T16:24:32.357Z</time>
      </trkpt>
      <trkpt lat="49.82804797589779" lon="6.095025949180126">
        <ele>203.32</ele>
        <time>2024-12-29T16:24:49.352Z</time>
      </trkpt>
      <trkpt lat="49.82820094563067" lon="6.095023937523365">
        <ele>203.26</ele>
        <time>2024-12-29T16:25:06.367Z</time>
      </trkpt>
      <trkpt lat="49.828383503481746" lon="6.094990493729711">
        <ele>203.18</ele>
        <time>2024-12-29T16:25:23.407Z</time>
      </trkpt>
      <trkpt lat="49.82856597751379" lon="6.094956966117024">
        <ele>203.13</ele>
        <time>2024-12-29T16:25:40.471Z</time>
      </trkpt>
      <trkpt lat="49.82884744182229" lon="6.094954954460263">
        <ele>203.12</ele>
        <time>2024-12-29T16:25:57.573Z</time>
      </trkpt>
      <trkpt lat="49.82912898994982" lon="6.094952942803502">
        <ele>203.12</ele>
        <time>2024-12-29T16:26:14.712Z</time>
      </trkpt>
      <trkpt lat="49.82940726913512" lon="6.094951266422868">
        <ele>203.15</ele>
        <time>2024-12-29T16:26:31.888Z</time>
      </trkpt>
      <trkpt lat="49.829685632139444" lon="6.0949495900422335">
        <ele>203.17</ele>
        <time>2024-12-29T16:26:49.102Z</time>
      </trkpt>
      <trkpt lat="49.829816641286016" lon="6.094948835670948">
        <ele>203.17</ele>
        <time>2024-12-29T16:27:06.333Z</time>
      </trkpt>
      <trkpt lat="49.82996399514377" lon="6.094947997480631">
        <ele>203.15</ele>
        <time>2024-12-29T16:27:23.584Z</time>
      </trkpt>
      <trkpt lat="49.830079916864634" lon="6.0949669405817986">
        <ele>203.13</ele>
        <time>2024-12-29T16:27:40.850Z</time>
      </trkpt>
      <trkpt lat="49.83014797791839" lon="6.094984961673617">
        <ele>203.14</ele>
        <time>2024-12-29T16:27:58.126Z</time>
      </trkpt>
      <trkpt lat="49.83024294488132" lon="6.095010945573449">
        <ele>203.15</ele>
        <time>2024-12-29T16:28:15.414Z</time>
      </trkpt>
      <trkpt lat="49.830361967906356" lon="6.095042964443564">
        <ele>203.17</ele>
        <time>2024-12-29T16:28:32.719Z</time>
      </trkpt>
      <trkpt lat="49.830510998144746" lon="6.095058973878622">
        <ele>203.23</ele>
        <time>2024-12-29T16:28:50.043Z</time>
      </trkpt>
      <trkpt lat="49.830770920962095" lon="6.095074648037553">
        <ele>203.33</ele>
        <time>2024-12-29T16:29:07.402Z</time>
      </trkpt>
      <trkpt lat="49.831030927598476" lon="6.095090322196484">
        <ele>203.44</ele>
        <time>2024-12-29T16:29:24.796Z</time>
      </trkpt>
      <trkpt lat="49.83129093423486" lon="6.095105996355414">
        <ele>203.52</ele>
        <time>2024-12-29T16:29:42.225Z</time>
      </trkpt>
      <trkpt lat="49.8314699716866" lon="6.095115467905998">
        <ele>203.67</ele>
        <time>2024-12-29T16:29:59.678Z</time>
      </trkpt>
      <trkpt lat="49.831648925319314" lon="6.095124939456582">
        <ele>203.84</ele>
        <time>2024-12-29T16:30:17.154Z</time>
      </trkpt>
      <trkpt lat="49.83183299191296" lon="6.095154946669936">
        <ele>203.98</ele>
        <time>2024-12-29T16:30:34.655Z</time>
      </trkpt>
      <trkpt lat="49.832016974687576" lon="6.09518495388329">
        <ele>204.07</ele>
        <time>2024-12-29T16:30:52.181Z</time>
      </trkpt>
      <trkpt lat="49.83232299797237" lon="6.095260977745056">
        <ele>204.2</ele>
        <time>2024-12-29T16:31:09.748Z</time>
      </trkpt>
      <trkpt lat="49.83255350030959" lon="6.095340186730027">
        <ele>204.32</ele>
        <time>2024-12-29T16:31:27.347Z</time>
      </trkpt>
      <trkpt lat="49.832784002646804" lon="6.09541947953403">
        <ele>204.47</ele>
        <time>2024-12-29T16:31:44.977Z</time>
      </trkpt>
      <trkpt lat="49.83301450498402" lon="6.095498772338033">
        <ele>204.64</ele>
        <time>2024-12-29T16:32:02.639Z</time>
      </trkpt>
      <trkpt lat="49.83324492350221" lon="6.095577981323004">
        <ele>204.8</ele>
        <time>2024-12-29T16:32:20.332Z</time>
      </trkpt>
      <trkpt lat="49.83350845053792" lon="6.095660459250212">
        <ele>205.0</ele>
        <time>2024-12-29T16:32:38.061Z</time>
      </trkpt>
      <trkpt lat="49.83357106335461" lon="6.095680072903633">
        <ele>205.17</ele>
        <time>2024-12-29T16:32:55.799Z</time>
      </trkpt>
      <trkpt lat="49.83377197757363" lon="6.09574293717742">
        <ele>205.37</ele>
        <time>2024-12-29T16:33:13.564Z</time>
      </trkpt>
      <trkpt lat="49.833817994222045" lon="6.095761964097619">
        <ele>205.47</ele>
        <time>2024-12-29T16:33:31.335Z</time>
      </trkpt>
      <trkpt lat="49.83389594592154" lon="6.095788953825831">
        <ele>205.55</ele>
        <time>2024-12-29T16:33:49.117Z</time>
      </trkpt>
      <trkpt lat="49.83408303000033" lon="6.09587193466723">
        <ele>205.6</ele>
        <time>2024-12-29T16:34:06.925Z</time>
      </trkpt>
      <trkpt lat="49.834269946441054" lon="6.09595499932766">
        <ele>205.62</ele>
        <time>2024-12-29T16:34:24.759Z</time>
      </trkpt>
      <trkpt lat="49.83451696112752" lon="6.096074944362044">
        <ele>205.59</ele>
        <time>2024-12-29T16:34:42.628Z</time>
      </trkpt>
      <trkpt lat="49.83471695333719" lon="6.096152979880571">
        <ele>205.61</ele>
        <time>2024-12-29T16:35:00.524Z</time>
      </trkpt>
      <trkpt lat="49.834884675219655" lon="6.096217855811119">
        <ele>205.65</ele>
        <time>2024-12-29T16:35:18.443Z</time>
      </trkpt>
      <trkpt lat="49.83488492667675" lon="6.096217939630151">
        <ele>205.71</ele>
        <time>2024-12-29T16:35:36.362Z</time>
      </trkpt>
      <trkpt lat="49.835173515602946" lon="6.096313996240497">
        <ele>205.76</ele>
        <time>2024-12-29T16:35:54.321Z</time>
      </trkpt>
      <trkpt lat="49.83546202071011" lon="6.096409969031811">
        <ele>205.88</ele>
        <time>2024-12-29T16:36:12.319Z</time>
      </trkpt>
      <trkpt lat="49.835750525817275" lon="6.096506025642157">
        <ele>206.05</ele>
        <time>2024-12-29T16:36:30.356Z</time>
      </trkpt>
      <trkpt lat="49.83603894710541" lon="6.096601998433471">
        <ele>206.2</ele>
        <time>2024-12-29T16:36:48.433Z</time>
      </trkpt>
      <trkpt lat="49.83612595126033" lon="6.096611972898245">
        <ele>206.25</ele>
        <time>2024-12-29T16:37:06.521Z</time>
      </trkpt>
      <trkpt lat="49.836204992607236" lon="6.096606943756342">
        <ele>206.27</ele>
        <time>2024-12-29T16:37:24.620Z</time>
      </trkpt>
      <trkpt lat="49.8364469781518" lon="6.096550952643156">
        <ele>206.3</ele>
        <time>2024-12-29T16:37:42.752Z</time>
      </trkpt>
      <trkpt lat="49.83659693039954" lon="6.09653695486486">
        <ele>206.27</ele>
        <time>2024-12-29T16:38:00.904Z</time>
      </trkpt>
      <trkpt lat="49.836760964244604" lon="6.096552964299917">
        <ele>206.21</ele>
        <time>2024-12-29T16:38:19.078Z</time>
      </trkpt>
      <trkpt lat="49.83689993619919" lon="6.096593951806426">
        <ele>206.09</ele>
        <time>2024-12-29T16:38:37.271Z</time>
      </trkpt>
      <trkpt lat="49.83717653900385" lon="6.09670945443213">
        <ele>205.9</ele>
        <time>2024-12-29T16:38:55.502Z</time>
      </trkpt>
      <trkpt lat="49.837452974170446" lon="6.096824957057834">
        <ele>205.72</ele>
        <time>2024-12-29T16:39:13.771Z</time>
      </trkpt>
      <trkpt lat="49.83772546984255" lon="6.096941968426108">
        <ele>205.55</ele>
        <time>2024-12-29T16:39:32.078Z</time>
      </trkpt>
      <trkpt lat="49.83799804933369" lon="6.097058979794383">
        <ele>205.31</ele>
        <time>2024-12-29T16:39:50.422Z</time>
      </trkpt>
      <trkpt lat="49.83827062882483" lon="6.097175991162658">
        <ele>204.94</ele>
        <time>2024-12-29T16:40:08.804Z</time>
      </trkpt>
      <trkpt lat="49.83854320831597" lon="6.097293002530932">
        <ele>204.53</ele>
        <time>2024-12-29T16:40:27.224Z</time>
      </trkpt>
      <trkpt lat="49.838815703988075" lon="6.097410097718239">
        <ele>204.22</ele>
        <time>2024-12-29T16:40:45.682Z</time>
      </trkpt>
      <trkpt lat="49.83908794820309" lon="6.09752694144845">
        <ele>203.94</ele>
        <time>2024-12-29T16:41:04.177Z</time>
      </trkpt>
      <trkpt lat="49.83913597650826" lon="6.097505986690521">
        <ele>203.62</ele>
        <time>2024-12-29T16:41:22.679Z</time>
      </trkpt>
      <trkpt lat="49.83913094736636" lon="6.0974169708788395">
        <ele>203.28</ele>
        <time>2024-12-29T16:41:41.189Z</time>
      </trkpt>
      <trkpt lat="49.8392011038959" lon="6.09703098423779">
        <ele>202.89</ele>
        <time>2024-12-29T16:41:59.733Z</time>
      </trkpt>
      <trkpt lat="49.83927092514932" lon="6.09664692543447">
        <ele>202.59</ele>
        <time>2024-12-29T16:42:18.312Z</time>
      </trkpt>
      <trkpt lat="49.83928492292762" lon="6.0965699795633554">
        <ele>202.3</ele>
        <time>2024-12-29T16:42:36.898Z</time>
      </trkpt>
      <trkpt lat="49.83936614356935" lon="6.096111070364714">
        <ele>202.04</ele>
        <time>2024-12-29T16:42:55.525Z</time>
      </trkpt>
      <trkpt lat="49.83944736421108" lon="6.095652244985104">
        <ele>201.79</ele>
        <time>2024-12-29T16:43:14.193Z</time>
      </trkpt>
      <trkpt lat="49.83952799811959" lon="6.095196940004826">
        <ele>201.5</ele>
        <time>2024-12-29T16:43:32.902Z</time>
      </trkpt>
      <trkpt lat="49.839555993676186" lon="6.095041958615184">
        <ele>201.25</ele>
        <time>2024-12-29T16:43:51.625Z</time>
      </trkpt>
      <trkpt lat="49.83962061814964" lon="6.094673490151763">
        <ele>200.98</ele>
        <time>2024-12-29T16:44:10.381Z</time>
      </trkpt>
      <trkpt lat="49.839684991165996" lon="6.0943069495260715">
        <ele>200.77</ele>
        <time>2024-12-29T16:44:29.169Z</time>
      </trkpt>
      <trkpt lat="49.8397331032902" lon="6.094042249023914">
        <ele>200.62</ele>
        <time>2024-12-29T16:44:47.981Z</time>
      </trkpt>
      <trkpt lat="49.83978096395731" lon="6.093778973445296">
        <ele>200.44</ele>
        <time>2024-12-29T16:45:06.817Z</time>
      </trkpt>
      <trkpt lat="49.83975699171424" lon="6.0937559232115746">
        <ele>200.31</ele>
        <time>2024-12-29T16:45:25.656Z</time>
      </trkpt>
      <trkpt lat="49.83974198810756" lon="6.093718959018588">
        <ele>200.22</ele>
        <time>2024-12-29T16:45:44.499Z</time>
      </trkpt>
      <trkpt lat="49.83973897062242" lon="6.093675959855318">
        <ele>200.16</ele>
        <time>2024-12-29T16:46:03.346Z</time>
      </trkpt>
      <trkpt lat="49.839687924832106" lon="6.093619968742132">
        <ele>200.12</ele>
        <time>2024-12-29T16:46:22.201Z</time>
      </trkpt>
      <trkpt lat="49.83952992595732" lon="6.093266922980547">
        <ele>200.08</ele>
        <time>2024-12-29T16:46:41.093Z</time>
      </trkpt>
      <trkpt lat="49.83936999924481" lon="6.093148989602923">
        <ele>200.09</ele>
        <time>2024-12-29T16:47:00.009Z</time>
      </trkpt>
      <trkpt lat="49.839338986203074" lon="6.0930959321558475">
        <ele>200.17</ele>
        <time>2024-12-29T16:47:18.931Z</time>
      </trkpt>
      <trkpt lat="49.83932993374765" lon="6.093019992113113">
        <ele>200.29</ele>
        <time>2024-12-29T16:47:37.860Z</time>
      </trkpt>
      <trkpt lat="49.83935591764748" lon="6.092919996008277">
        <ele>200.42</ele>
        <time>2024-12-29T16:47:56.798Z</time>
      </trkpt>
      <trkpt lat="49.83939992263913" lon="6.092838943004608">
        <ele>200.57</ele>
        <time>2024-12-29T16:48:15.745Z</time>
      </trkpt>
      <trkpt lat="49.83954694122076" lon="6.092665940523148">
        <ele>200.81</ele>
        <time>2024-12-29T16:48:34.717Z</time>
      </trkpt>
      <trkpt lat="49.839680632576346" lon="6.0924571473151445">
        <ele>201.02</ele>
        <time>2024-12-29T16:48:53.714Z</time>
      </trkpt>
      <trkpt lat="49.839813988655806" lon="6.0922489408403635">
        <ele>201.28</ele>
        <time>2024-12-29T16:49:12.737Z</time>
      </trkpt>
      <trkpt lat="49.83991499058902" lon="6.092129917815328">
        <ele>201.49</ele>
        <time>2024-12-29T16:49:31.777Z</time>
      </trkpt>
      <trkpt lat="49.83997793868184" lon="6.092039979994297">
        <ele>201.7</ele>
        <time>2024-12-29T16:49:50.828Z</time>
      </trkpt>
      <trkpt lat="49.840111546218395" lon="6.091779554262757">
        <ele>201.86</ele>
        <time>2024-12-29T16:50:09.908Z</time>
      </trkpt>
      <trkpt lat="49.84024506993592" lon="6.091519044712186">
        <ele>201.97</ele>
        <time>2024-12-29T16:50:29.016Z</time>
      </trkpt>
      <trkpt lat="49.84037792310119" lon="6.091259960085154">
        <ele>202.16</ele>
        <time>2024-12-29T16:50:48.153Z</time>
      </trkpt>
      <trkpt lat="49.84043492004275" lon="6.091176979243755">
        <ele>202.37</ele>
        <time>2024-12-29T16:51:07.300Z</time>
      </trkpt>
      <trkpt lat="49.84049594029784" lon="6.0911209881305695">
        <ele>202.54</ele>
        <time>2024-12-29T16:51:26.457Z</time>
      </trkpt>
      <trkpt lat="49.84057296998799" lon="6.091087963432074">
        <ele>202.67</ele>
        <time>2024-12-29T16:51:45.624Z</time>
      </trkpt>
      <trkpt lat="49.84064094722271" lon="6.091083940118551">
        <ele>202.74</ele>
        <time>2024-12-29T16:52:04.801Z</time>
      </trkpt>
      <trkpt lat="49.84075292944908" lon="6.091113947331905">
        <ele>202.85</ele>
        <time>2024-12-29T16:52:23.993Z</time>
      </trkpt>
      <trkpt lat="49.840911934152246" lon="6.091194916516542">
        <ele>202.89</ele>
        <time>2024-12-29T16:52:43.207Z</time>
      </trkpt>
      <trkpt lat="49.841057946905494" lon="6.091302959248424">
        <ele>202.91</ele>
        <time>2024-12-29T16:53:02.443Z</time>
      </trkpt>
      <trkpt lat="49.84115299768746" lon="6.0913819167762995">
        <ele>202.9</ele>
        <time>2024-12-29T16:53:21.693Z</time>
      </trkpt>
      <trkpt lat="49.84134494327009" lon="6.091590961441398">
        <ele>202.72</ele>
        <time>2024-12-29T16:53:40.974Z</time>
      </trkpt>
      <trkpt lat="49.84134594909847" lon="6.091591967269778">
        <ele>202.58</ele>
        <time>2024-12-29T16:54:00.256Z</time>
      </trkpt>
      <trkpt lat="49.84146094880998" lon="6.091715935617685">
        <ele>202.29</ele>
        <time>2024-12-29T16:54:19.556Z</time>
      </trkpt>
      <trkpt lat="49.84161593019962" lon="6.091860942542553">
        <ele>201.99</ele>
        <time>2024-12-29T16:54:38.880Z</time>
      </trkpt>
      <trkpt lat="49.84184995293617" lon="6.092002931982279">
        <ele>201.77</ele>
        <time>2024-12-29T16:54:58.238Z</time>
      </trkpt>
      <trkpt lat="49.84197492711246" lon="6.092106951400638">
        <ele>201.59</ele>
        <time>2024-12-29T16:55:17.615Z</time>
      </trkpt>
      <trkpt lat="49.84204298816621" lon="6.092180963605642">
        <ele>201.41</ele>
        <time>2024-12-29T16:55:37.003Z</time>
      </trkpt>
      <trkpt lat="49.842132925987244" lon="6.092298980802298">
        <ele>201.21</ele>
        <time>2024-12-29T16:55:56.407Z</time>
      </trkpt>
      <trkpt lat="49.84227198176086" lon="6.092565944418311">
        <ele>200.96</ele>
        <time>2024-12-29T16:56:15.840Z</time>
      </trkpt>
      <trkpt lat="49.84238597564399" lon="6.092659989371896">
        <ele>200.79</ele>
        <time>2024-12-29T16:56:35.291Z</time>
      </trkpt>
      <trkpt lat="49.84248798340559" lon="6.092742970213294">
        <ele>200.66</ele>
        <time>2024-12-29T16:56:54.757Z</time>
      </trkpt>
      <trkpt lat="49.84263198450208" lon="6.0928579699248075">
        <ele>200.54</ele>
        <time>2024-12-29T16:57:14.245Z</time>
      </trkpt>
      <trkpt lat="49.84278000891209" lon="6.092963498085737">
        <ele>200.39</ele>
        <time>2024-12-29T16:57:33.754Z</time>
      </trkpt>
      <trkpt lat="49.842927949503064" lon="6.093068942427635">
        <ele>200.32</ele>
        <time>2024-12-29T16:57:53.285Z</time>
      </trkpt>
      <trkpt lat="49.84313850291073" lon="6.093176985159516">
        <ele>200.32</ele>
        <time>2024-12-29T16:58:12.846Z</time>
      </trkpt>
      <trkpt lat="49.84334897249937" lon="6.093284944072366">
        <ele>200.33</ele>
        <time>2024-12-29T16:58:32.436Z</time>
      </trkpt>
      <trkpt lat="49.843550976365805" lon="6.093356441706419">
        <ele>200.36</ele>
        <time>2024-12-29T16:58:52.054Z</time>
      </trkpt>
      <trkpt lat="49.84375298023224" lon="6.093427939340472">
        <ele>200.41</ele>
        <time>2024-12-29T16:59:11.700Z</time>
      </trkpt>
      <trkpt lat="49.84385599382222" lon="6.093480996787548">
        <ele>200.4</ele>
        <time>2024-12-29T16:59:31.360Z</time>
      </trkpt>
      <trkpt lat="49.84401893801987" lon="6.093589961528778">
        <ele>200.37</ele>
        <time>2024-12-29T16:59:51.044Z</time>
      </trkpt>
      <trkpt lat="49.84407694078982" lon="6.093630949035287">
        <ele>200.27</ele>
        <time>2024-12-29T17:00:10.736Z</time>
      </trkpt>
      <trkpt lat="49.84423401765525" lon="6.093740500509739">
        <ele>200.15</ele>
        <time>2024-12-29T17:00:30.451Z</time>
      </trkpt>
      <trkpt lat="49.844390926882625" lon="6.093849968165159">
        <ele>199.93</ele>
        <time>2024-12-29T17:00:50.189Z</time>
      </trkpt>
      <trkpt lat="49.84463391825557" lon="6.094041997566819">
        <ele>199.65</ele>
        <time>2024-12-29T17:01:09.964Z</time>
      </trkpt>
      <trkpt lat="49.84462092630565" lon="6.094087930396199">
        <ele>199.45</ele>
        <time>2024-12-29T17:01:29.743Z</time>
      </trkpt>
      <trkpt lat="49.84465395100415" lon="6.094172922894359">
        <ele>199.23</ele>
        <time>2024-12-29T17:01:49.531Z</time>
      </trkpt>
      <trkpt lat="49.84466593712568" lon="6.0942689795047045">
        <ele>199.01</ele>
        <time>2024-12-29T17:02:09.327Z</time>
      </trkpt>
      <trkpt lat="49.8446649312973" lon="6.09436796978116">
        <ele>198.79</ele>
        <time>2024-12-29T17:02:29.132Z</time>
      </trkpt>
      <trkpt lat="49.84466392546892" lon="6.094454973936081">
        <ele>198.57</ele>
        <time>2024-12-29T17:02:48.944Z</time>
      </trkpt>
      <trkpt lat="49.84472092241049" lon="6.094451956450939">
        <ele>198.37</ele>
        <time>2024-12-29T17:03:08.764Z</time>
      </trkpt>
      <trkpt lat="49.8447719682008" lon="6.094471989199519">
        <ele>198.21</ele>
        <time>2024-12-29T17:03:28.591Z</time>
      </trkpt>
      <trkpt lat="49.845015965402126" lon="6.094658989459276">
        <ele>198.01</ele>
        <time>2024-12-29T17:03:48.454Z</time>
      </trkpt>
      <trkpt lat="49.845037925988436" lon="6.094676926732063">
        <ele>197.96</ele>
        <time>2024-12-29T17:04:08.320Z</time>
      </trkpt>
      <trkpt lat="49.845118978992105" lon="6.094741970300674">
        <ele>197.97</ele>
        <time>2024-12-29T17:04:28.199Z</time>
      </trkpt>
      <trkpt lat="49.84514898620546" lon="6.094770971685648">
        <ele>198.08</ele>
        <time>2024-12-29T17:04:48.082Z</time>
      </trkpt>
      <trkpt lat="49.84517094679177" lon="6.094809947535396">
        <ele>198.27</ele>
        <time>2024-12-29T17:05:07.970Z</time>
      </trkpt>
      <trkpt lat="49.84519299119711" lon="6.094845989719033">
        <ele>198.54</ele>
        <time>2024-12-29T17:05:27.862Z</time>
      </trkpt>
      <trkpt lat="49.845226937904954" lon="6.094792932271957">
        <ele>198.92</ele>
        <time>2024-12-29T17:05:47.761Z</time>
      </trkpt>
      <trkpt lat="49.84535811468959" lon="6.094627305865288">
        <ele>199.45</ele>
        <time>2024-12-29T17:06:07.682Z</time>
      </trkpt>
      <trkpt lat="49.845488956198096" lon="6.094461930915713">
        <ele>200.12</ele>
        <time>2024-12-29T17:06:27.626Z</time>
      </trkpt>
      <trkpt lat="49.84553296118975" lon="6.094415998086333">
        <ele>200.8</ele>
        <time>2024-12-29T17:06:47.577Z</time>
      </trkpt>
      <trkpt lat="49.845573948696256" lon="6.094387918710709">
        <ele>201.56</ele>
        <time>2024-12-29T17:07:07.534Z</time>
      </trkpt>
      <trkpt lat="49.84560496173799" lon="6.094331927597523">
        <ele>202.39</ele>
        <time>2024-12-29T17:07:27.497Z</time>
      </trkpt>
      <trkpt lat="49.84561895951629" lon="6.094270991161466">
        <ele>203.29</ele>
        <time>2024-12-29T17:07:47.466Z</time>
      </trkpt>
      <trkpt lat="49.845614936202765" lon="6.094191949814558">
        <ele>204.25</ele>
        <time>2024-12-29T17:08:07.442Z</time>
      </trkpt>
      <trkpt lat="49.84557897783816" lon="6.094005955383182">
        <ele>205.29</ele>
        <time>2024-12-29T17:08:27.434Z</time>
      </trkpt>
      <trkpt lat="49.845527932047844" lon="6.093815937638283">
        <ele>206.35</ele>
        <time>2024-12-29T17:08:47.444Z</time>
      </trkpt>
      <trkpt lat="49.84562415629625" lon="6.093576969578862">
        <ele>207.51</ele>
        <time>2024-12-29T17:09:07.478Z</time>
      </trkpt>
      <trkpt lat="49.845719961449504" lon="6.0933389235287905">
        <ele>208.64</ele>
        <time>2024-12-29T17:09:27.537Z</time>
      </trkpt>
      <trkpt lat="49.84576195478439" lon="6.093308916315436">
        <ele>209.59</ele>
        <time>2024-12-29T17:09:47.602Z</time>
      </trkpt>
      <trkpt lat="49.84578098170459" lon="6.093274969607592">
        <ele>210.49</ele>
        <time>2024-12-29T17:10:07.671Z</time>
      </trkpt>
      <trkpt lat="49.845783999189734" lon="6.093231970444322">
        <ele>211.32</ele>
        <time>2024-12-29T17:10:27.743Z</time>
      </trkpt>
      <trkpt lat="49.845640920102596" lon="6.093000965192914">
        <ele>212.18</ele>
        <time>2024-12-29T17:10:47.843Z</time>
      </trkpt>
      <trkpt lat="49.845548970624804" lon="6.092827962711453">
        <ele>212.88</ele>
        <time>2024-12-29T17:11:07.962Z</time>
      </trkpt>
      <trkpt lat="49.84554293565452" lon="6.092729978263378">
        <ele>213.43</ele>
        <time>2024-12-29T17:11:28.090Z</time>
      </trkpt>
      <trkpt lat="49.845572942867875" lon="6.092617996037006">
        <ele>213.9</ele>
        <time>2024-12-29T17:11:48.228Z</time>
      </trkpt>
      <trkpt lat="49.84558098949492" lon="6.092511964961886">
        <ele>214.25</ele>
        <time>2024-12-29T17:12:08.375Z</time>
      </trkpt>
      <trkpt lat="49.845597920939326" lon="6.092468965798616">
        <ele>214.39</ele>
        <time>2024-12-29T17:12:28.527Z</time>
      </trkpt>
      <trkpt lat="49.84564896672964" lon="6.092404928058386">
        <ele>214.42</ele>
        <time>2024-12-29T17:12:48.688Z</time>
      </trkpt>
      <trkpt lat="49.84574091620743" lon="6.092571979388595">
        <ele>214.12</ele>
        <time>2024-12-29T17:13:08.868Z</time>
      </trkpt>
      <trkpt lat="49.84581492841244" lon="6.092737941071391">
        <ele>213.7</ele>
        <time>2024-12-29T17:13:29.065Z</time>
      </trkpt>
      <trkpt lat="49.84590293839574" lon="6.09297095797956">
        <ele>213.18</ele>
        <time>2024-12-29T17:13:49.285Z</time>
      </trkpt>
      <trkpt lat="49.84597695060074" lon="6.093170950189233">
        <ele>212.67</ele>
        <time>2024-12-29T17:14:09.525Z</time>
      </trkpt>
      <trkpt lat="49.84606093727052" lon="6.093399943783879">
        <ele>212.15</ele>
        <time>2024-12-29T17:14:29.788Z</time>
      </trkpt>
      <trkpt lat="49.84610393643379" lon="6.093512931838632">
        <ele>211.68</ele>
        <time>2024-12-29T17:14:50.062Z</time>
      </trkpt>
      <trkpt lat="49.84622295945883" lon="6.093814931809902">
        <ele>211.21</ele>
        <time>2024-12-29T17:15:10.367Z</time>
      </trkpt>
      <trkpt lat="49.84631298109889" lon="6.093992963433266">
        <ele>210.78</ele>
        <time>2024-12-29T17:15:30.691Z</time>
      </trkpt>
      <trkpt lat="49.84638196416199" lon="6.094107963144779">
        <ele>210.43</ele>
        <time>2024-12-29T17:15:51.029Z</time>
      </trkpt>
      <trkpt lat="49.84646595083177" lon="6.0942259803414345">
        <ele>210.15</ele>
        <time>2024-12-29T17:16:11.382Z</time>
      </trkpt>
      <trkpt lat="49.84658799134195" lon="6.094360928982496">
        <ele>209.97</ele>
        <time>2024-12-29T17:16:31.755Z</time>
      </trkpt>
      <trkpt lat="49.84662193804979" lon="6.094255987554789">
        <ele>209.94</ele>
        <time>2024-12-29T17:16:52.138Z</time>
      </trkpt>
      <trkpt lat="49.84672822058201" lon="6.093922220170498">
        <ele>210.07</ele>
        <time>2024-12-29T17:17:12.553Z</time>
      </trkpt>
      <trkpt lat="49.846833916381" lon="6.093589961528778">
        <ele>210.36</ele>
        <time>2024-12-29T17:17:33.000Z</time>
      </trkpt>
      <trkpt lat="49.84689895994961" lon="6.093366919085383">
        <ele>210.7</ele>
        <time>2024-12-29T17:17:53.468Z</time>
      </trkpt>
      <trkpt lat="49.846958136186004" lon="6.093129878863692">
        <ele>211.07</ele>
        <time>2024-12-29T17:18:13.958Z</time>
      </trkpt>
      <trkpt lat="49.84701697714627" lon="6.0928939282894135">
        <ele>211.46</ele>
        <time>2024-12-29T17:18:34.470Z</time>
      </trkpt>
      <trkpt lat="49.84710699878633" lon="6.092674992978573">
        <ele>211.79</ele>
        <time>2024-12-29T17:18:55.004Z</time>
      </trkpt>
      <trkpt lat="49.84712393023074" lon="6.092631993815303">
        <ele>212.04</ele>
        <time>2024-12-29T17:19:15.543Z</time>
      </trkpt>
      <trkpt lat="49.84721194021404" lon="6.092599974945188">
        <ele>212.3</ele>
        <time>2024-12-29T17:19:36.094Z</time>
      </trkpt>
      <trkpt lat="49.847204983234406" lon="6.092513976618648">
        <ele>212.53</ele>
        <time>2024-12-29T17:19:56.652Z</time>
      </trkpt>
      <trkpt lat="49.84723398461938" lon="6.092097982764244">
        <ele>212.69</ele>
        <time>2024-12-29T17:20:17.246Z</time>
      </trkpt>
      <trkpt lat="49.84723691828549" lon="6.091883992776275">
        <ele>212.88</ele>
        <time>2024-12-29T17:20:37.859Z</time>
      </trkpt>
      <trkpt lat="49.84723197296262" lon="6.091647958382964">
        <ele>213.07</ele>
        <time>2024-12-29T17:20:58.492Z</time>
      </trkpt>
      <trkpt lat="49.84721437096596" lon="6.091271946206689">
        <ele>213.17</ele>
        <time>2024-12-29T17:21:19.158Z</time>
      </trkpt>
      <trkpt lat="49.84719693660736" lon="6.090897945687175">
        <ele>213.51</ele>
        <time>2024-12-29T17:21:39.856Z</time>
      </trkpt>
      <trkpt lat="49.847138933837414" lon="6.090459991246462">
        <ele>213.93</ele>
        <time>2024-12-29T17:22:00.593Z</time>
      </trkpt>
      <trkpt lat="49.84711395576596" lon="6.090121949091554">
        <ele>214.21</ele>
        <time>2024-12-29T17:22:21.359Z</time>
      </trkpt>
      <trkpt lat="49.84710792079568" lon="6.09004894271493">
        <ele>214.5</ele>
        <time>2024-12-29T17:22:42.131Z</time>
      </trkpt>
      <trkpt lat="49.847097946330905" lon="6.089692963287234">
        <ele>214.84</ele>
        <time>2024-12-29T17:23:02.934Z</time>
      </trkpt>
      <trkpt lat="49.847116973251104" lon="6.089418958872557">
        <ele>215.24</ele>
        <time>2024-12-29T17:23:23.761Z</time>
      </trkpt>
      <trkpt lat="49.84717799350619" lon="6.08914696611464">
        <ele>215.65</ele>
        <time>2024-12-29T17:23:44.613Z</time>
      </trkpt>
      <trkpt lat="49.84719299711287" lon="6.08904093503952">
        <ele>216.0</ele>
        <time>2024-12-29T17:24:05.474Z</time>
      </trkpt>
      <trkpt lat="49.8472451325506" lon="6.088666431605816">
        <ele>216.38</ele>
        <time>2024-12-29T17:24:26.368Z</time>
      </trkpt>
      <trkpt lat="49.8472969327122" lon="6.088293939828873">
        <ele>216.69</ele>
        <time>2024-12-29T17:24:47.295Z</time>
      </trkpt>
      <trkpt lat="49.84730095602572" lon="6.088102916255593">
        <ele>217.16</ele>
        <time>2024-12-29T17:25:08.239Z</time>
      </trkpt>
      <trkpt lat="49.847267931327224" lon="6.087930919602513">
        <ele>217.77</ele>
        <time>2024-12-29T17:25:29.198Z</time>
      </trkpt>
      <trkpt lat="49.84717195853591" lon="6.08770796097815">
        <ele>218.56</ele>
        <time>2024-12-29T17:25:50.180Z</time>
      </trkpt>
      <trkpt lat="49.847099957987666" lon="6.087539987638593">
        <ele>219.47</ele>
        <time>2024-12-29T17:26:11.180Z</time>
      </trkpt>
      <trkpt lat="49.84700893051922" lon="6.087204962968826">
        <ele>220.57</ele>
        <time>2024-12-29T17:26:32.211Z</time>
      </trkpt>
      <trkpt lat="49.846986969932914" lon="6.086921989917755">
        <ele>221.8</ele>
        <time>2024-12-29T17:26:53.267Z</time>
      </trkpt>
      <trkpt lat="49.8468909971416" lon="6.086816964671016">
        <ele>223.18</ele>
        <time>2024-12-29T17:27:14.338Z</time>
      </trkpt>
      <trkpt lat="49.846692932769656" lon="6.086438940837979">
        <ele>224.89</ele>
        <time>2024-12-29T17:27:35.451Z</time>
      </trkpt>
      <trkpt lat="49.84665496274829" lon="6.086363922804594">
        <ele>226.73</ele>
        <time>2024-12-29T17:27:56.572Z</time>
      </trkpt>
      <trkpt lat="49.846538957208395" lon="6.086067957803607">
        <ele>228.97</ele>
        <time>2024-12-29T17:28:17.723Z</time>
      </trkpt>
      <trkpt lat="49.84647877514362" lon="6.085756151005626">
        <ele>231.4</ele>
        <time>2024-12-29T17:28:38.902Z</time>
      </trkpt>
      <trkpt lat="49.84641867689788" lon="6.0854443442076445">
        <ele>233.91</ele>
        <time>2024-12-29T17:29:00.109Z</time>
      </trkpt>
      <trkpt lat="49.8463589977473" lon="6.085134968161583">
        <ele>236.46</ele>
        <time>2024-12-29T17:29:21.344Z</time>
      </trkpt>
      <trkpt lat="49.84632387757301" lon="6.084784520789981">
        <ele>239.15</ele>
        <time>2024-12-29T17:29:42.610Z</time>
      </trkpt>
      <trkpt lat="49.84628892503679" lon="6.084435917437077">
        <ele>241.79</ele>
        <time>2024-12-29T17:30:03.906Z</time>
      </trkpt>
      <trkpt lat="49.84626897610724" lon="6.0840769205242395">
        <ele>244.28</ele>
        <time>2024-12-29T17:30:25.234Z</time>
      </trkpt>
      <trkpt lat="49.846219941973686" lon="6.083855973556638">
        <ele>246.56</ele>
        <time>2024-12-29T17:30:46.582Z</time>
      </trkpt>
      <trkpt lat="49.84611298888922" lon="6.083465963602066">
        <ele>248.86</ele>
        <time>2024-12-29T17:31:07.966Z</time>
      </trkpt>
      <trkpt lat="49.846047945320606" lon="6.083286926150322">
        <ele>250.96</ele>
        <time>2024-12-29T17:31:29.368Z</time>
      </trkpt>
      <trkpt lat="49.84601492062211" lon="6.083081988617778">
        <ele>253.04</ele>
        <time>2024-12-29T17:31:50.788Z</time>
      </trkpt>
      <trkpt lat="49.846003940328956" lon="6.082948129624128">
        <ele>254.61</ele>
        <time>2024-12-29T17:32:12.220Z</time>
      </trkpt>
    </trkseg>
  </trk>
</gpx>
